Observation data for Colorado City on 05/24/2019      Previous  Date  Next       Current Mesonet Observations  Soil Data  Daily Summary Page  Observations in Plain Language
KCO2 240500Z 15015KT 25/19 A2987 RMK A01 T02510191  RH  069%=      5-min Rain = 0
KCO2 240501Z 15017G22KT 25/19 A2987 RMK A01 T02510191  RH  069%=      5-min Rain = 0
KCO2 240502Z 15017KT 25/19 A2987 RMK A01 T02510191  RH  069%=      5-min Rain = 0
KCO2 240503Z 16014KT 25/19 A2987 RMK A01 T02510191  RH  069%=      5-min Rain = 0
KCO2 240504Z 15015G21KT 25/19 A2987 RMK A01 T02500191  RH  069%=      5-min Rain = 0
KCO2 240505Z 15020KT 25/19 A2987 RMK A01 T02500190  RH  069%=      5-min Rain = 0
KCO2 240506Z 15018G24KT 25/19 A2987 RMK A01 T02500190  RH  069%=      5-min Rain = 0
KCO2 240507Z 15018KT 25/19 A2987 RMK A01 T02510190  RH  069%=      5-min Rain = 0
KCO2 240508Z 15014KT 25/19 A2987 RMK A01 T02510190  RH  069%=      5-min Rain = 0
KCO2 240509Z 16017G23KT 25/19 A2987 RMK A01 T02500190  RH  069%=      5-min Rain = 0
KCO2 240510Z 15017G22KT 25/19 A2987 RMK A01 T02500190  RH  069%=      5-min Rain = 0
KCO2 240511Z 15018KT 25/19 A2987 RMK A01 T02490190  RH  069%=      5-min Rain = 0
KCO2 240512Z 15018KT 25/19 A2987 RMK A01 T02490189  RH  069%=      5-min Rain = 0
KCO2 240513Z 16017G25KT 25/19 A2987 RMK A01 T02500189  RH  069%=      5-min Rain = 0
KCO2 240514Z 16015G22KT 25/19 A2987 RMK A01 T02500189  RH  069%=      5-min Rain = 0
KCO2 240515Z 15019G25KT 25/19 A2987 RMK A01 T02500189  RH  069%=      5-min Rain = 0
KCO2 240516Z 16020KT 25/19 A2987 RMK A01 T02490189  RH  069%=      5-min Rain = 0
KCO2 240517Z 16014G21KT 25/19 A2987 RMK A01 T02490189  RH  069%=      5-min Rain = 0
KCO2 240518Z 15017KT 25/19 A2987 RMK A01 T02490189  RH  069%=      5-min Rain = 0
KCO2 240519Z 15016KT 25/19 A2987 RMK A01 T02490189  RH  069%=      5-min Rain = 0
KCO2 240520Z 15016G21KT 25/19 A2987 RMK A01 T02490189  RH  069%=      5-min Rain = 0
KCO2 240521Z 15015KT 25/19 A2988 RMK A01 T02490189  RH  069%=      5-min Rain = 0
KCO2 240522Z 15018KT 25/19 A2988 RMK A01 T02490189  RH  069%=      5-min Rain = 0
KCO2 240523Z 16015KT 25/19 A2987 RMK A01 T02480188  RH  069%=      5-min Rain = 0
KCO2 240524Z 15013G18KT 25/19 A2987 RMK A01 T02480188  RH  069%=      5-min Rain = 0
KCO2 240525Z 15018G23KT 25/19 A2988 RMK A01 T02470188  RH  070%=      5-min Rain = 0
KCO2 240526Z 16016KT 25/19 A2987 RMK A01 T02470188  RH  070%=      5-min Rain = 0
KCO2 240527Z 15012G17KT 25/19 A2988 RMK A01 T02470188  RH  070%=      5-min Rain = 0
KCO2 240528Z 15015KT 25/19 A2987 RMK A01 T02470188  RH  070%=      5-min Rain = 0
KCO2 240529Z 16015KT 25/19 A2987 RMK A01 T02460188  RH  070%=      5-min Rain = 0
KCO2 240530Z 15015G23KT 25/19 A2987 RMK A01 T02460188  RH  070%=      5-min Rain = 0
KCO2 240531Z 15016KT 25/19 A2987 RMK A01 T02460188  RH  070%=      5-min Rain = 0
KCO2 240532Z 15015KT 25/19 A2987 RMK A01 T02460188  RH  070%=      5-min Rain = 0
KCO2 240533Z 15015KT 25/19 A2987 RMK A01 T02460188  RH  070%=      5-min Rain = 0
KCO2 240534Z 15013KT 25/19 A2987 RMK A01 T02460188  RH  070%=      5-min Rain = 0
KCO2 240535Z 15015KT 25/19 A2987 RMK A01 T02450188  RH  070%=      5-min Rain = 0
KCO2 240536Z 15019G24KT 25/19 A2987 RMK A01 T02450188  RH  070%=      5-min Rain = 0
KCO2 240537Z 15015G20KT 25/19 A2987 RMK A01 T02460188  RH  070%=      5-min Rain = 0
KCO2 240538Z 15019KT 25/19 A2987 RMK A01 T02460187  RH  070%=      5-min Rain = 0
KCO2 240539Z 15017G22KT 25/19 A2987 RMK A01 T02460188  RH  070%=      5-min Rain = 0
KCO2 240540Z 15018KT 25/19 A2987 RMK A01 T02460188  RH  070%=      5-min Rain = 0
KCO2 240541Z 15020KT 25/19 A2987 RMK A01 T02460188  RH  070%=      5-min Rain = 0
KCO2 240542Z 16015G20KT 25/19 A2987 RMK A01 T02460187  RH  070%=      5-min Rain = 0
KCO2 240543Z 16014G20KT 25/19 A2987 RMK A01 T02460188  RH  070%=      5-min Rain = 0
KCO2 240544Z 15015KT 25/19 A2987 RMK A01 T02450188  RH  070%=      5-min Rain = 0
KCO2 240545Z 15017KT 25/19 A2987 RMK A01 T02450188  RH  071%=      5-min Rain = 0
KCO2 240546Z 15014KT 25/19 A2988 RMK A01 T02450187  RH  070%=      5-min Rain = 0
KCO2 240547Z 15015KT 24/19 A2988 RMK A01 T02440187  RH  071%=      5-min Rain = 0
KCO2 240548Z 15017G22KT 25/19 A2988 RMK A01 T02450188  RH  071%=      5-min Rain = 0
KCO2 240549Z 15018G23KT 24/19 A2988 RMK A01 T02440187  RH  070%=      5-min Rain = 0
KCO2 240550Z 15015KT 24/19 A2988 RMK A01 T02440187  RH  070%=      5-min Rain = 0
KCO2 240551Z 15013KT 24/19 A2988 RMK A01 T02440187  RH  070%=      5-min Rain = 0
KCO2 240552Z 16015G22KT 24/19 A2988 RMK A01 T02440188  RH  071%=      5-min Rain = 0
KCO2 240553Z 15013G18KT 24/19 A2988 RMK A01 T02430188  RH  071%=      5-min Rain = 0
KCO2 240554Z 15015KT 24/19 A2988 RMK A01 T02430188  RH  071%=      5-min Rain = 0
KCO2 240555Z 16014KT 24/19 A2988 RMK A01 T02430188  RH  071%=      5-min Rain = 0
KCO2 240556Z 15014KT 24/19 A2988 RMK A01 T02420188  RH  072%=      5-min Rain = 0
KCO2 240557Z 16014KT 24/19 A2988 RMK A01 T02420188  RH  072%=      5-min Rain = 0
KCO2 240558Z 16015G21KT 24/19 A2988 RMK A01 T02420188  RH  072%=      5-min Rain = 0
KCO2 240559Z 16015KT 24/19 A2988 RMK A01 T02420188  RH  072%=      5-min Rain = 0
KCO2 240600Z 15017G23KT 24/19 A2988 RMK A01 T02420188  RH  072%=      5-min Rain = 0
KCO2 240601Z 16015G22KT 24/19 A2988 RMK A01 T02410188  RH  072%=      5-min Rain = 0
KCO2 240602Z 16015G20KT 24/19 A2988 RMK A01 T02420188  RH  072%=      5-min Rain = 0
KCO2 240603Z 16015KT 24/19 A2988 RMK A01 T02420188  RH  072%=      5-min Rain = 0
KCO2 240604Z 16015KT 24/19 A2988 RMK A01 T02420188  RH  072%=      5-min Rain = 0
KCO2 240605Z 15015KT 24/19 A2988 RMK A01 T02420188  RH  072%=      5-min Rain = 0
KCO2 240606Z 15012KT 24/19 A2988 RMK A01 T02420189  RH  072%=      5-min Rain = 0
KCO2 240607Z 16013KT 24/19 A2988 RMK A01 T02410189  RH  072%=      5-min Rain = 0
KCO2 240608Z 16012KT 24/19 A2988 RMK A01 T02410189  RH  073%=      5-min Rain = 0
KCO2 240609Z 16015KT 24/19 A2988 RMK A01 T02400189  RH  073%=      5-min Rain = 0
KCO2 240610Z 16015KT 24/19 A2988 RMK A01 T02400188  RH  073%=      5-min Rain = 0
KCO2 240611Z 16014KT 24/19 A2988 RMK A01 T02400189  RH  073%=      5-min Rain = 0
KCO2 240612Z 15014KT 24/19 A2988 RMK A01 T02400189  RH  073%=      5-min Rain = 0
KCO2 240613Z 15016KT 24/19 A2988 RMK A01 T02400189  RH  073%=      5-min Rain = 0
KCO2 240614Z 15017KT 24/19 A2988 RMK A01 T02400189  RH  073%=      5-min Rain = 0
KCO2 240615Z 16011KT 24/19 A2988 RMK A01 T02400189  RH  073%=      5-min Rain = 0
KCO2 240616Z 16011G16KT 24/19 A2988 RMK A01 T02400189  RH  073%=      5-min Rain = 0
KCO2 240617Z 16011KT 24/19 A2988 RMK A01 T02390190  RH  074%=      5-min Rain = 0
KCO2 240618Z 16014KT 24/19 A2988 RMK A01 T02380189  RH  074%=      5-min Rain = 0
KCO2 240619Z 16016KT 24/19 A2988 RMK A01 T02380189  RH  074%=      5-min Rain = 0
KCO2 240620Z 16015KT 24/19 A2988 RMK A01 T02390189  RH  074%=      5-min Rain = 0
KCO2 240621Z 16016KT 24/19 A2988 RMK A01 T02390189  RH  074%=      5-min Rain = 0
KCO2 240622Z 16016KT 24/19 A2988 RMK A01 T02390190  RH  074%=      5-min Rain = 0
KCO2 240623Z 15015KT 24/19 A2988 RMK A01 T02390190  RH  074%=      5-min Rain = 0
KCO2 240624Z 16013G20KT 24/19 A2988 RMK A01 T02390190  RH  074%=      5-min Rain = 0
KCO2 240625Z 16015KT 24/19 A2988 RMK A01 T02390190  RH  074%=      5-min Rain = 0
KCO2 240626Z 15015KT 24/19 A2988 RMK A01 T02390190  RH  074%=      5-min Rain = 0
KCO2 240627Z 16018G23KT 24/19 A2988 RMK A01 T02390190  RH  074%=      5-min Rain = 0
KCO2 240628Z 16016KT 24/19 A2989 RMK A01 T02390190  RH  074%=      5-min Rain = 0
KCO2 240629Z 16017KT 24/19 A2988 RMK A01 T02390190  RH  074%=      5-min Rain = 0
KCO2 240630Z 16015KT 24/19 A2989 RMK A01 T02390190  RH  074%=      5-min Rain = 0
KCO2 240631Z 16013KT 24/19 A2989 RMK A01 T02390191  RH  074%=      5-min Rain = 0
KCO2 240632Z 16016G21KT 24/19 A2989 RMK A01 T02380191  RH  075%=      5-min Rain = 0
KCO2 240633Z 16017KT 24/19 A2989 RMK A01 T02380191  RH  075%=      5-min Rain = 0
KCO2 240634Z 16016KT 24/19 A2989 RMK A01 T02380191  RH  075%=      5-min Rain = 0
KCO2 240635Z 15014KT 24/19 A2989 RMK A01 T02390191  RH  075%=      5-min Rain = 0
KCO2 240636Z 16016KT 24/19 A2989 RMK A01 T02390192  RH  075%=      5-min Rain = 0
KCO2 240637Z 16018KT 24/19 A2989 RMK A01 T02390192  RH  075%=      5-min Rain = 0
KCO2 240638Z 16016KT 24/19 A2989 RMK A01 T02400192  RH  075%=      5-min Rain = 0
KCO2 240639Z 16013KT 24/19 A2989 RMK A01 T02400192  RH  074%=      5-min Rain = 0
KCO2 240640Z 16013KT 24/19 A2989 RMK A01 T02400192  RH  075%=      5-min Rain = 0
KCO2 240641Z 16016KT 24/19 A2989 RMK A01 T02400193  RH  075%=      5-min Rain = 0
KCO2 240642Z 16016KT 24/19 A2989 RMK A01 T02400193  RH  075%=      5-min Rain = 0
KCO2 240643Z 16014KT 24/19 A2989 RMK A01 T02400193  RH  075%=      5-min Rain = 0
KCO2 240644Z 17017KT 24/19 A2989 RMK A01 T02410193  RH  075%=      5-min Rain = 0
KCO2 240645Z 17017G22KT 24/19 A2989 RMK A01 T02400193  RH  075%=      5-min Rain = 0
KCO2 240646Z 17012KT 24/19 A2989 RMK A01 T02400193  RH  075%=      5-min Rain = 0
KCO2 240647Z 16011KT 24/19 A2989 RMK A01 T02400194  RH  075%=      5-min Rain = 0
KCO2 240648Z 17014KT 24/19 A2989 RMK A01 T02400193  RH  075%=      5-min Rain = 0
KCO2 240649Z 17013KT 24/19 A2989 RMK A01 T02400194  RH  075%=      5-min Rain = 0
KCO2 240650Z 16012G17KT 24/19 A2989 RMK A01 T02400194  RH  075%=      5-min Rain = 0
KCO2 240651Z 17013KT 24/19 A2989 RMK A01 T02390194  RH  076%=      5-min Rain = 0
KCO2 240652Z 16012KT 24/19 A2989 RMK A01 T02390194  RH  076%=      5-min Rain = 0
KCO2 240653Z 16014KT 24/19 A2989 RMK A01 T02390194  RH  076%=      5-min Rain = 0
KCO2 240654Z 17014KT 24/19 A2989 RMK A01 T02400194  RH  076%=      5-min Rain = 0
KCO2 240655Z 17015KT 24/19 A2989 RMK A01 T02390194  RH  076%=      5-min Rain = 0
KCO2 240656Z 16014KT 24/19 A2989 RMK A01 T02390194  RH  076%=      5-min Rain = 0
KCO2 240657Z 16015KT 24/19 A2989 RMK A01 T02390194  RH  076%=      5-min Rain = 0
KCO2 240658Z 16015KT 24/19 A2989 RMK A01 T02390194  RH  076%=      5-min Rain = 0
KCO2 240659Z 16015KT 24/19 A2989 RMK A01 T02390194  RH  076%=      5-min Rain = 0
KCO2 240700Z 16015KT 24/19 A2988 RMK A01 T02390194  RH  076%=      5-min Rain = 0
KCO2 240701Z 17014KT 24/19 A2989 RMK A01 T02390194  RH  076%=      5-min Rain = 0
KCO2 240702Z 17013KT 24/20 A2988 RMK A01 T02390195  RH  076%=      5-min Rain = 0
KCO2 240703Z 17016KT 24/20 A2988 RMK A01 T02390195  RH  076%=      5-min Rain = 0
KCO2 240704Z 15014KT 24/19 A2988 RMK A01 T02390194  RH  076%=      5-min Rain = 0
KCO2 240705Z 16014G20KT 24/20 A2988 RMK A01 T02380195  RH  076%=      5-min Rain = 0
KCO2 240706Z 16017KT 24/19 A2988 RMK A01 T02380194  RH  077%=      5-min Rain = 0
KCO2 240707Z 16015KT 24/19 A2988 RMK A01 T02380194  RH  077%=      5-min Rain = 0
KCO2 240708Z 17014KT 24/20 A2989 RMK A01 T02380195  RH  077%=      5-min Rain = 0
KCO2 240709Z 16016KT 24/20 A2988 RMK A01 T02380195  RH  077%=      5-min Rain = 0
KCO2 240710Z 16016KT 24/20 A2988 RMK A01 T02370195  RH  077%=      5-min Rain = 0
KCO2 240711Z 16017KT 24/20 A2988 RMK A01 T02380195  RH  077%=      5-min Rain = 0
KCO2 240712Z 16013KT 24/19 A2988 RMK A01 T02370194  RH  077%=      5-min Rain = 0
KCO2 240713Z 16014KT 24/20 A2988 RMK A01 T02380195  RH  077%=      5-min Rain = 0
KCO2 240714Z 16012KT 24/20 A2988 RMK A01 T02380195  RH  077%=      5-min Rain = 0
KCO2 240715Z 16011KT 24/20 A2988 RMK A01 T02370195  RH  077%=      5-min Rain = 0
KCO2 240716Z 16015KT 24/20 A2988 RMK A01 T02370195  RH  077%=      5-min Rain = 0
KCO2 240717Z 16014KT 24/20 A2988 RMK A01 T02370195  RH  078%=      5-min Rain = 0
KCO2 240718Z 16016KT 24/20 A2988 RMK A01 T02370195  RH  077%=      5-min Rain = 0
KCO2 240719Z 17014KT 24/20 A2988 RMK A01 T02370195  RH  078%=      5-min Rain = 0
KCO2 240720Z 16015KT 24/20 A2988 RMK A01 T02370195  RH  077%=      5-min Rain = 0
KCO2 240721Z 17014KT 24/20 A2988 RMK A01 T02370195  RH  078%=      5-min Rain = 0
KCO2 240722Z 17016KT 24/20 A2988 RMK A01 T02370195  RH  078%=      5-min Rain = 0
KCO2 240723Z 16013KT 24/20 A2988 RMK A01 T02360195  RH  078%=      5-min Rain = 0
KCO2 240724Z 16013G18KT 24/20 A2988 RMK A01 T02370196  RH  078%=      5-min Rain = 0
KCO2 240725Z 16014KT 24/20 A2988 RMK A01 T02370196  RH  078%=      5-min Rain = 0
KCO2 240726Z 16014G19KT 24/20 A2988 RMK A01 T02360196  RH  078%=      5-min Rain = 0
KCO2 240727Z 16012KT 24/20 A2988 RMK A01 T02360196  RH  078%=      5-min Rain = 0
KCO2 240728Z 16015KT 24/20 A2988 RMK A01 T02360196  RH  078%=      5-min Rain = 0
KCO2 240729Z 16013KT 24/20 A2988 RMK A01 T02360196  RH  078%=      5-min Rain = 0
KCO2 240730Z 17015KT 24/20 A2988 RMK A01 T02360196  RH  078%=      5-min Rain = 0
KCO2 240731Z 16013KT 24/20 A2988 RMK A01 T02360196  RH  078%=      5-min Rain = 0
KCO2 240732Z 16013KT 24/20 A2988 RMK A01 T02360196  RH  078%=      5-min Rain = 0
KCO2 240733Z 17014KT 24/20 A2988 RMK A01 T02350196  RH  079%=      5-min Rain = 0
KCO2 240734Z 16014KT 24/20 A2988 RMK A01 T02350196  RH  079%=      5-min Rain = 0
KCO2 240735Z 16015KT 24/20 A2988 RMK A01 T02350196  RH  079%=      5-min Rain = 0
KCO2 240736Z 17013KT 24/20 A2988 RMK A01 T02360197  RH  079%=      5-min Rain = 0
KCO2 240737Z 16014KT 24/20 A2988 RMK A01 T02360197  RH  079%=      5-min Rain = 0
KCO2 240738Z 16014KT 24/20 A2988 RMK A01 T02360197  RH  079%=      5-min Rain = 0
KCO2 240739Z 17014KT 24/20 A2988 RMK A01 T02350197  RH  079%=      5-min Rain = 0
KCO2 240740Z 17015KT 24/20 A2988 RMK A01 T02360197  RH  079%=      5-min Rain = 0
KCO2 240741Z 17013G20KT 24/20 A2988 RMK A01 T02360197  RH  079%=      5-min Rain = 0
KCO2 240742Z 17015KT 24/20 A2988 RMK A01 T02360197  RH  079%=      5-min Rain = 0
KCO2 240743Z 16016KT 24/20 A2988 RMK A01 T02360197  RH  079%=      5-min Rain = 0
KCO2 240744Z 17013G18KT 24/20 A2988 RMK A01 T02360197  RH  079%=      5-min Rain = 0
KCO2 240745Z 17014G19KT 24/20 A2988 RMK A01 T02360197  RH  079%=      5-min Rain = 0
KCO2 240746Z 17016G21KT 24/20 A2988 RMK A01 T02360197  RH  079%=      5-min Rain = 0
KCO2 240747Z 16014KT 24/20 A2988 RMK A01 T02360198  RH  079%=      5-min Rain = 0
KCO2 240748Z 16014KT 24/20 A2988 RMK A01 T02360198  RH  079%=      5-min Rain = 0
KCO2 240749Z 17013KT 24/20 A2988 RMK A01 T02360197  RH  079%=      5-min Rain = 0
KCO2 240750Z 17010KT 24/20 A2988 RMK A01 T02360198  RH  079%=      5-min Rain = 0
KCO2 240751Z 17012KT 24/20 A2988 RMK A01 T02360198  RH  079%=      5-min Rain = 0
KCO2 240752Z 17011KT 24/20 A2988 RMK A01 T02350198  RH  079%=      5-min Rain = 0
KCO2 240753Z 17010KT 24/20 A2988 RMK A01 T02360198  RH  079%=      5-min Rain = 0
KCO2 240754Z 17012KT 24/20 A2988 RMK A01 T02360198  RH  080%=      5-min Rain = 0
KCO2 240755Z 16011KT 24/20 A2988 RMK A01 T02360198  RH  080%=      5-min Rain = 0
KCO2 240756Z 17013KT 24/20 A2988 RMK A01 T02350198  RH  080%=      5-min Rain = 0
KCO2 240757Z 17014KT 24/20 A2988 RMK A01 T02350198  RH  080%=      5-min Rain = 0
KCO2 240758Z 17013G18KT 24/20 A2988 RMK A01 T02350198  RH  080%=      5-min Rain = 0
KCO2 240759Z 16014G19KT 24/20 A2988 RMK A01 T02350198  RH  080%=      5-min Rain = 0
KCO2 240800Z 16014KT 24/20 A2988 RMK A01 T02350198  RH  080%=      5-min Rain = 0
KCO2 240801Z 17014G20KT 24/20 A2988 RMK A01 T02350198  RH  080%=      5-min Rain = 0
KCO2 240802Z 17015G21KT 24/20 A2988 RMK A01 T02360199  RH  080%=      5-min Rain = 0
KCO2 240803Z 16012KT 24/20 A2988 RMK A01 T02350198  RH  080%=      5-min Rain = 0
KCO2 240804Z 17012G17KT 24/20 A2988 RMK A01 T02350198  RH  080%=      5-min Rain = 0
KCO2 240805Z 16012KT 24/20 A2988 RMK A01 T02350198  RH  080%=      5-min Rain = 0
KCO2 240806Z 16013G18KT 24/20 A2988 RMK A01 T02350199  RH  080%=      5-min Rain = 0
KCO2 240807Z 16015KT 23/20 A2988 RMK A01 T02340199  RH  080%=      5-min Rain = 0
KCO2 240808Z 16015KT 23/20 A2988 RMK A01 T02340199  RH  080%=      5-min Rain = 0
KCO2 240809Z 16014G19KT 23/20 A2988 RMK A01 T02340198  RH  080%=      5-min Rain = 0
KCO2 240810Z 16013KT 23/20 A2988 RMK A01 T02340198  RH  080%=      5-min Rain = 0
KCO2 240811Z 16015KT 23/20 A2988 RMK A01 T02340199  RH  080%=      5-min Rain = 0
KCO2 240812Z 16018KT 23/20 A2987 RMK A01 T02340199  RH  080%=      5-min Rain = 0
KCO2 240813Z 16016KT 23/20 A2988 RMK A01 T02340199  RH  080%=      5-min Rain = 0
KCO2 240814Z 16015G23KT 23/20 A2988 RMK A01 T02340198  RH  080%=      5-min Rain = 0
KCO2 240815Z 16015KT 23/20 A2988 RMK A01 T02340199  RH  080%=      5-min Rain = 0
KCO2 240816Z 16012KT 23/20 A2988 RMK A01 T02340199  RH  080%=      5-min Rain = 0
KCO2 240817Z 16012KT 23/20 A2988 RMK A01 T02340199  RH  081%=      5-min Rain = 0
KCO2 240818Z 16011KT 23/20 A2988 RMK A01 T02340199  RH  081%=      5-min Rain = 0
KCO2 240819Z 16012KT 23/20 A2988 RMK A01 T02340199  RH  081%=      5-min Rain = 0
KCO2 240820Z 16012KT 23/20 A2988 RMK A01 T02330199  RH  081%=      5-min Rain = 0
KCO2 240821Z 16013KT 23/20 A2988 RMK A01 T02340199  RH  081%=      5-min Rain = 0
KCO2 240822Z 16015KT 23/20 A2988 RMK A01 T02330199  RH  081%=      5-min Rain = 0
KCO2 240823Z 17012KT 23/20 A2988 RMK A01 T02330199  RH  081%=      5-min Rain = 0
KCO2 240824Z 16012KT 23/20 A2988 RMK A01 T02340199  RH  081%=      5-min Rain = 0
KCO2 240825Z 16012KT 23/20 A2988 RMK A01 T02340199  RH  081%=      5-min Rain = 0
KCO2 240826Z 16011KT 23/20 A2988 RMK A01 T02340199  RH  081%=      5-min Rain = 0
KCO2 240827Z 17012KT 23/20 A2988 RMK A01 T02340199  RH  081%=      5-min Rain = 0
KCO2 240828Z 17013KT 23/20 A2988 RMK A01 T02340200  RH  081%=      5-min Rain = 0
KCO2 240829Z 17011KT 23/20 A2988 RMK A01 T02340199  RH  081%=      5-min Rain = 0
KCO2 240830Z 17011KT 23/20 A2988 RMK A01 T02340199  RH  081%=      5-min Rain = 0
KCO2 240831Z 17012KT 23/20 A2988 RMK A01 T02340199  RH  081%=      5-min Rain = 0
KCO2 240832Z 17012KT 23/20 A2988 RMK A01 T02340199  RH  081%=      5-min Rain = 0
KCO2 240833Z 16010KT 23/20 A2988 RMK A01 T02340199  RH  081%=      5-min Rain = 0
KCO2 240834Z 17010KT 23/20 A2988 RMK A01 T02340199  RH  081%=      5-min Rain = 0
KCO2 240835Z 17012KT 23/20 A2988 RMK A01 T02340199  RH  081%=      5-min Rain = 0
KCO2 240836Z 17012KT 23/20 A2988 RMK A01 T02340199  RH  081%=      5-min Rain = 0
KCO2 240837Z 16011G16KT 23/20 A2988 RMK A01 T02340199  RH  081%=      5-min Rain = 0
KCO2 240838Z 17015KT 23/20 A2988 RMK A01 T02340199  RH  081%=      5-min Rain = 0
KCO2 240839Z 16012G17KT 23/20 A2988 RMK A01 T02340200  RH  081%=      5-min Rain = 0
KCO2 240840Z 16012KT 23/20 A2988 RMK A01 T02340200  RH  081%=      5-min Rain = 0
KCO2 240841Z 16013KT 23/20 A2988 RMK A01 T02340200  RH  081%=      5-min Rain = 0
KCO2 240842Z 16012KT 23/20 A2988 RMK A01 T02340200  RH  081%=      5-min Rain = 0
KCO2 240843Z 17011KT 23/20 A2988 RMK A01 T02340200  RH  081%=      5-min Rain = 0
KCO2 240844Z 16011KT 23/20 A2988 RMK A01 T02340200  RH  081%=      5-min Rain = 0
KCO2 240845Z 17010KT 23/20 A2988 RMK A01 T02340200  RH  081%=      5-min Rain = 0
KCO2 240846Z 16009G14KT 23/20 A2988 RMK A01 T02330200  RH  082%=      5-min Rain = 0
KCO2 240847Z 16011KT 23/20 A2988 RMK A01 T02330201  RH  082%=      5-min Rain = 0
KCO2 240848Z 16012KT 23/20 A2988 RMK A01 T02330200  RH  082%=      5-min Rain = 0
KCO2 240849Z 16014KT 23/20 A2988 RMK A01 T02330200  RH  082%=      5-min Rain = 0
KCO2 240850Z 16014KT 23/20 A2988 RMK A01 T02320200  RH  082%=      5-min Rain = 0
KCO2 240851Z 16010KT 23/20 A2988 RMK A01 T02320200  RH  082%=      5-min Rain = 0
KCO2 240852Z 16010KT 23/20 A2988 RMK A01 T02320200  RH  082%=      5-min Rain = 0
KCO2 240853Z 16012KT 23/20 A2988 RMK A01 T02320200  RH  082%=      5-min Rain = 0
KCO2 240854Z 16012KT 23/20 A2988 RMK A01 T02320200  RH  082%=      5-min Rain = 0
KCO2 240855Z 16012KT 23/20 A2988 RMK A01 T02320200  RH  082%=      5-min Rain = 0
KCO2 240856Z 17014KT 23/20 A2988 RMK A01 T02320200  RH  082%=      5-min Rain = 0
KCO2 240857Z 16013KT 23/20 A2988 RMK A01 T02320200  RH  082%=      5-min Rain = 0
KCO2 240858Z 17012KT 23/20 A2989 RMK A01 T02320200  RH  082%=      5-min Rain = 0
KCO2 240859Z 17011KT 23/20 A2989 RMK A01 T02320200  RH  082%=      5-min Rain = 0
KCO2 240900Z 17011KT 23/20 A2989 RMK A01 T02330200  RH  082%=      5-min Rain = 0
KCO2 240901Z 17011KT 23/20 A2989 RMK A01 T02320200  RH  082%=      5-min Rain = 0
KCO2 240902Z 16010KT 23/20 A2989 RMK A01 T02330201  RH  082%=      5-min Rain = 0
KCO2 240903Z 16012KT 23/20 A2989 RMK A01 T02320200  RH  082%=      5-min Rain = 0
KCO2 240904Z 16011KT 23/20 A2989 RMK A01 T02320201  RH  082%=      5-min Rain = 0
KCO2 240905Z 17011KT 23/20 A2989 RMK A01 T02320201  RH  082%=      5-min Rain = 0
KCO2 240906Z 16009KT 23/20 A2989 RMK A01 T02320201  RH  082%=      5-min Rain = 0
KCO2 240907Z 16011KT 23/20 A2989 RMK A01 T02320201  RH  083%=      5-min Rain = 0
KCO2 240908Z 17015KT 23/20 A2989 RMK A01 T02320201  RH  082%=      5-min Rain = 0
KCO2 240909Z 16014KT 23/20 A2989 RMK A01 T02330201  RH  082%=      5-min Rain = 0
KCO2 240910Z 16014KT 23/20 A2989 RMK A01 T02330200  RH  082%=      5-min Rain = 0
KCO2 240911Z 16014KT 23/20 A2989 RMK A01 T02330201  RH  082%=      5-min Rain = 0
KCO2 240912Z 16012KT 23/20 A2989 RMK A01 T02330201  RH  082%=      5-min Rain = 0
KCO2 240913Z 17012KT 23/20 A2989 RMK A01 T02330201  RH  082%=      5-min Rain = 0
KCO2 240914Z 16012KT 23/20 A2989 RMK A01 T02330200  RH  082%=      5-min Rain = 0
KCO2 240915Z 16010KT 23/20 A2989 RMK A01 T02330201  RH  082%=      5-min Rain = 0
KCO2 240916Z 16013KT 23/20 A2989 RMK A01 T02330201  RH  082%=      5-min Rain = 0
KCO2 240917Z 17014KT 23/20 A2989 RMK A01 T02330201  RH  082%=      5-min Rain = 0
KCO2 240918Z 16013KT 23/20 A2989 RMK A01 T02330201  RH  082%=      5-min Rain = 0
KCO2 240919Z 16012KT 23/20 A2989 RMK A01 T02330201  RH  082%=      5-min Rain = 0
KCO2 240920Z 16013KT 23/20 A2989 RMK A01 T02330201  RH  082%=      5-min Rain = 0
KCO2 240921Z 16013KT 23/20 A2989 RMK A01 T02330201  RH  082%=      5-min Rain = 0
KCO2 240922Z 16010G16KT 23/20 A2989 RMK A01 T02330201  RH  082%=      5-min Rain = 0
KCO2 240923Z 16012KT 23/20 A2989 RMK A01 T02330201  RH  082%=      5-min Rain = 0
KCO2 240924Z 16013KT 23/20 A2989 RMK A01 T02330201  RH  082%=      5-min Rain = 0
KCO2 240925Z 16011KT 23/20 A2989 RMK A01 T02330201  RH  082%=      5-min Rain = 0
KCO2 240926Z 17012KT 23/20 A2989 RMK A01 T02320201  RH  082%=      5-min Rain = 0
KCO2 240927Z 16013KT 23/20 A2989 RMK A01 T02330201  RH  082%=      5-min Rain = 0
KCO2 240928Z 16014KT 23/20 A2989 RMK A01 T02320201  RH  082%=      5-min Rain = 0
KCO2 240929Z 16012KT 23/20 A2989 RMK A01 T02330201  RH  082%=      5-min Rain = 0
KCO2 240930Z 16011KT 23/20 A2989 RMK A01 T02320201  RH  082%=      5-min Rain = 0
KCO2 240931Z 16012KT 23/20 A2989 RMK A01 T02320201  RH  082%=      5-min Rain = 0
KCO2 240932Z 16013KT 23/20 A2989 RMK A01 T02330201  RH  082%=      5-min Rain = 0
KCO2 240933Z 16010KT 23/20 A2989 RMK A01 T02330201  RH  082%=      5-min Rain = 0
KCO2 240934Z 16011KT 23/20 A2989 RMK A01 T02320201  RH  083%=      5-min Rain = 0
KCO2 240935Z 16012KT 23/20 A2989 RMK A01 T02320201  RH  083%=      5-min Rain = 0
KCO2 240936Z 16011G16KT 23/20 A2989 RMK A01 T02320201  RH  083%=      5-min Rain = 0
KCO2 240937Z 16011KT 23/20 A2989 RMK A01 T02320201  RH  083%=      5-min Rain = 0
KCO2 240938Z 16013G20KT 23/20 A2989 RMK A01 T02310201  RH  083%=      5-min Rain = 0
KCO2 240939Z 16012G17KT 23/20 A2989 RMK A01 T02310200  RH  083%=      5-min Rain = 0
KCO2 240940Z 16011G16KT 23/20 A2989 RMK A01 T02310200  RH  083%=      5-min Rain = 0
KCO2 240941Z 16013KT 23/20 A2989 RMK A01 T02310200  RH  083%=      5-min Rain = 0
KCO2 240942Z 16012G17KT 23/20 A2989 RMK A01 T02310200  RH  083%=      5-min Rain = 0
KCO2 240943Z 16011KT 23/20 A2989 RMK A01 T02320201  RH  083%=      5-min Rain = 0
KCO2 240944Z 16015KT 23/20 A2989 RMK A01 T02320201  RH  083%=      5-min Rain = 0
KCO2 240945Z 16012KT 23/20 A2989 RMK A01 T02320201  RH  083%=      5-min Rain = 0
KCO2 240946Z 16011KT 23/20 A2989 RMK A01 T02320201  RH  083%=      5-min Rain = 0
KCO2 240947Z 15012G17KT 23/20 A2989 RMK A01 T02310201  RH  083%=      5-min Rain = 0
KCO2 240948Z 16013KT 23/20 A2989 RMK A01 T02320201  RH  083%=      5-min Rain = 0
KCO2 240949Z 16011KT 23/20 A2989 RMK A01 T02310201  RH  083%=      5-min Rain = 0
KCO2 240950Z 16014KT 23/20 A2989 RMK A01 T02310200  RH  083%=      5-min Rain = 0
KCO2 240951Z 16011KT 23/20 A2989 RMK A01 T02320201  RH  083%=      5-min Rain = 0
KCO2 240952Z 16011KT 23/20 A2989 RMK A01 T02310201  RH  083%=      5-min Rain = 0
KCO2 240953Z 16010KT 23/20 A2989 RMK A01 T02320201  RH  083%=      5-min Rain = 0
KCO2 240954Z 16011KT 23/20 A2989 RMK A01 T02320201  RH  083%=      5-min Rain = 0
KCO2 240955Z 16010KT 23/20 A2989 RMK A01 T02310201  RH  083%=      5-min Rain = 0
KCO2 240956Z 16009KT 23/20 A299 RMK A01 T02310201  RH  083%=      5-min Rain = 0
KCO2 240957Z 16010KT 23/20 A299 RMK A01 T02310201  RH  083%=      5-min Rain = 0
KCO2 240958Z 17011KT 23/20 A299 RMK A01 T02310201  RH  083%=      5-min Rain = 0
KCO2 240959Z 16010KT 23/20 A299 RMK A01 T02310201  RH  083%=      5-min Rain = 0
KCO2 241000Z 16011KT 23/20 A299 RMK A01 T02310201  RH  083%=      5-min Rain = 0
KCO2 241001Z 17008KT 23/20 A299 RMK A01 T02310201  RH  083%=      5-min Rain = 0
KCO2 241002Z 17007KT 23/20 A2991 RMK A01 T02320201  RH  083%=      5-min Rain = 0
KCO2 241003Z 17007KT 23/20 A2991 RMK A01 T02310201  RH  083%=      5-min Rain = 0
KCO2 241004Z 17006KT 23/20 A2991 RMK A01 T02320201  RH  083%=      5-min Rain = 0
KCO2 241005Z 17006KT 23/20 A2991 RMK A01 T02310201  RH  083%=      5-min Rain = 0
KCO2 241006Z 17006KT 23/20 A2991 RMK A01 T02320201  RH  083%=      5-min Rain = 0
KCO2 241007Z 17006KT 23/20 A2991 RMK A01 T02310201  RH  083%=      5-min Rain = 0
KCO2 241008Z 17006KT 23/20 A2991 RMK A01 T02320201  RH  083%=      5-min Rain = 0
KCO2 241009Z 16006KT 23/20 A2991 RMK A01 T02320201  RH  083%=      5-min Rain = 0
KCO2 241010Z 17005KT 23/20 A2991 RMK A01 T02320201  RH  083%=      5-min Rain = 0
KCO2 241011Z 17005KT 23/20 A2991 RMK A01 T02320201  RH  083%=      5-min Rain = 0
KCO2 241012Z 16003KT 23/20 A2991 RMK A01 T02310201  RH  083%=      5-min Rain = 0
KCO2 241013Z 17005KT 23/20 A2992 RMK A01 T02320201  RH  083%=      5-min Rain = 0
KCO2 241014Z 18005KT 23/20 A2992 RMK A01 T02310201  RH  083%=      5-min Rain = 0
KCO2 241015Z 19004KT 23/20 A2992 RMK A01 T02310201  RH  083%=      5-min Rain = 0
KCO2 241016Z 19003KT 23/20 A2992 RMK A01 T02310201  RH  083%=      5-min Rain = 0
KCO2 241017Z 20004KT 23/20 A2992 RMK A01 T02320202  RH  083%=      5-min Rain = 0
KCO2 241018Z 21004KT 23/20 A2992 RMK A01 T02310201  RH  083%=      5-min Rain = 0
KCO2 241019Z 20004KT 23/20 A2992 RMK A01 T02320202  RH  083%=      5-min Rain = 0
KCO2 241020Z 19004KT 23/20 A2992 RMK A01 T02320202  RH  083%=      5-min Rain = 0
KCO2 241021Z 17006KT 23/20 A2992 RMK A01 T02310201  RH  083%=      5-min Rain = 0
KCO2 241022Z 20004KT 23/20 A2992 RMK A01 T02320201  RH  083%=      5-min Rain = 0
KCO2 241023Z 21003KT 23/20 A2993 RMK A01 T02320201  RH  083%=      5-min Rain = 0
KCO2 241024Z 21002KT 23/20 A2993 RMK A01 T02320201  RH  083%=      5-min Rain = 0
KCO2 241025Z 22001KT 23/20 A2993 RMK A01 T02320202  RH  083%=      5-min Rain = 0
KCO2 241026Z 22003KT 23/20 A2993 RMK A01 T02320202  RH  083%=      5-min Rain = 0
KCO2 241027Z 22003KT 23/20 A2993 RMK A01 T02310201  RH  083%=      5-min Rain = 0
KCO2 241028Z 21004KT 23/20 A2993 RMK A01 T02310201  RH  083%=      5-min Rain = 0
KCO2 241029Z 22003KT 23/20 A2993 RMK A01 T02320202  RH  083%=      5-min Rain = 0
KCO2 241030Z 20005KT 23/20 A2993 RMK A01 T02310201  RH  083%=      5-min Rain = 0
KCO2 241031Z 22004KT 23/20 A2993 RMK A01 T02320201  RH  083%=      5-min Rain = 0
KCO2 241032Z 20004KT 23/20 A2993 RMK A01 T02320201  RH  083%=      5-min Rain = 0
KCO2 241033Z 20007KT 23/20 A2993 RMK A01 T02320201  RH  083%=      5-min Rain = 0
KCO2 241034Z 19005KT 23/20 A2993 RMK A01 T02320201  RH  083%=      5-min Rain = 0
KCO2 241035Z 18007G12KT 23/20 A2993 RMK A01 T02330201  RH  082%=      5-min Rain = 0
KCO2 241036Z 18009KT 23/20 A2993 RMK A01 T02320201  RH  082%=      5-min Rain = 0
KCO2 241037Z 19008KT 23/20 A2993 RMK A01 T02330200  RH  082%=      5-min Rain = 0
KCO2 241038Z 18009KT 23/20 A2993 RMK A01 T02340200  RH  081%=      5-min Rain = 0
KCO2 241039Z 18009KT 23/20 A2993 RMK A01 T02340199  RH  081%=      5-min Rain = 0
KCO2 241040Z 18007KT 23/20 A2992 RMK A01 T02340199  RH  081%=      5-min Rain = 0
KCO2 241041Z 17008KT 24/20 A2992 RMK A01 T02350200  RH  081%=      5-min Rain = 0
KCO2 241042Z 18008KT 24/20 A2993 RMK A01 T02350200  RH  081%=      5-min Rain = 0
KCO2 241043Z 18008KT 24/20 A2993 RMK A01 T02350200  RH  081%=      5-min Rain = 0
KCO2 241044Z 18008KT 24/20 A2993 RMK A01 T02350199  RH  081%=      5-min Rain = 0
KCO2 241045Z 19009KT 24/20 A2993 RMK A01 T02350199  RH  080%=      5-min Rain = 0
KCO2 241046Z 19007KT 24/20 A2993 RMK A01 T02350198  RH  080%=      5-min Rain = 0
KCO2 241047Z 18008KT 24/20 A2993 RMK A01 T02350198  RH  080%=      5-min Rain = 0
KCO2 241048Z 19008KT 24/20 A2993 RMK A01 T02350198  RH  080%=      5-min Rain = 0
KCO2 241049Z 19011KT 24/20 A2993 RMK A01 T02350198  RH  079%=      5-min Rain = 0
KCO2 241050Z 19009KT 24/20 A2993 RMK A01 T02360196  RH  079%=      5-min Rain = 0
KCO2 241051Z 18011KT 24/20 A2993 RMK A01 T02360196  RH  078%=      5-min Rain = 0
KCO2 241052Z 18011KT 24/20 A2993 RMK A01 T02370195  RH  077%=      5-min Rain = 0
KCO2 241053Z 18010KT 24/20 A2993 RMK A01 T02370195  RH  077%=      5-min Rain = 0
KCO2 241054Z 18009KT 24/19 A2993 RMK A01 T02370194  RH  077%=      5-min Rain = 0
KCO2 241055Z 18008G13KT 24/19 A2992 RMK A01 T02380194  RH  077%=      5-min Rain = 0
KCO2 241056Z 18007KT 24/19 A2992 RMK A01 T02380194  RH  077%=      5-min Rain = 0
KCO2 241057Z 18006KT 24/19 A2993 RMK A01 T02370194  RH  077%=      5-min Rain = 0
KCO2 241058Z 18010KT 24/19 A2993 RMK A01 T02370194  RH  077%=      5-min Rain = 0
KCO2 241059Z 18011KT 24/19 A2993 RMK A01 T02370193  RH  076%=      5-min Rain = 0
KCO2 241100Z 18009KT 24/19 A2993 RMK A01 T02380192  RH  076%=      5-min Rain = 0
KCO2 241101Z 19008KT 24/19 A2993 RMK A01 T02390193  RH  075%=      5-min Rain = 0
KCO2 241102Z 18009KT 24/19 A2993 RMK A01 T02380192  RH  075%=      5-min Rain = 0
KCO2 241103Z 19008KT 24/19 A2993 RMK A01 T02380192  RH  075%=      5-min Rain = 0
KCO2 241104Z 18010KT 24/19 A2993 RMK A01 T02380192  RH  075%=      5-min Rain = 0
KCO2 241105Z 18009KT 24/19 A2993 RMK A01 T02390192  RH  075%=      5-min Rain = 0
KCO2 241106Z 18010KT 24/19 A2993 RMK A01 T02390193  RH  075%=      5-min Rain = 0
KCO2 241107Z 17010KT 24/19 A2993 RMK A01 T02390192  RH  075%=      5-min Rain = 0
KCO2 241108Z 18013KT 24/19 A2993 RMK A01 T02390192  RH  075%=      5-min Rain = 0
KCO2 241109Z 18012KT 24/19 A2993 RMK A01 T02390192  RH  075%=      5-min Rain = 0
KCO2 241110Z 18011KT 24/19 A2993 RMK A01 T02390192  RH  075%=      5-min Rain = 0
KCO2 241111Z 18010KT 24/19 A2993 RMK A01 T02390192  RH  075%=      5-min Rain = 0
KCO2 241112Z 18009KT 24/19 A2993 RMK A01 T02390192  RH  075%=      5-min Rain = 0
KCO2 241113Z 19008KT 24/19 A2993 RMK A01 T02390193  RH  075%=      5-min Rain = 0
KCO2 241114Z 19008KT 24/19 A2993 RMK A01 T02380193  RH  075%=      5-min Rain = 0
KCO2 241115Z 20008KT 24/19 A2993 RMK A01 T02390193  RH  076%=      5-min Rain = 0
KCO2 241116Z 19006KT 24/19 A2993 RMK A01 T02380193  RH  076%=      5-min Rain = 0
KCO2 241117Z 19009KT 24/19 A2993 RMK A01 T02380193  RH  076%=      5-min Rain = 0
KCO2 241118Z 19009KT 24/19 A2993 RMK A01 T02380193  RH  076%=      5-min Rain = 0
KCO2 241119Z 18008KT 24/19 A2993 RMK A01 T02380193  RH  076%=      5-min Rain = 0
KCO2 241120Z 19008KT 24/19 A2993 RMK A01 T02380193  RH  076%=      5-min Rain = 0
KCO2 241121Z 18008KT 24/19 A2993 RMK A01 T02380193  RH  076%=      5-min Rain = 0
KCO2 241122Z 18007KT 24/19 A2993 RMK A01 T02380194  RH  076%=      5-min Rain = 0
KCO2 241123Z 18006KT 24/19 A2993 RMK A01 T02370193  RH  076%=      5-min Rain = 0
KCO2 241124Z 18008KT 24/19 A2993 RMK A01 T02370193  RH  076%=      5-min Rain = 0
KCO2 241125Z 18007KT 24/19 A2993 RMK A01 T02370193  RH  076%=      5-min Rain = 0
KCO2 241126Z 18007KT 24/19 A2993 RMK A01 T02370193  RH  076%=      5-min Rain = 0
KCO2 241127Z 19008KT 24/19 A2993 RMK A01 T02370194  RH  077%=      5-min Rain = 0
KCO2 241128Z 18007KT 24/19 A2993 RMK A01 T02370194  RH  077%=      5-min Rain = 0
KCO2 241129Z 18005KT 24/19 A2993 RMK A01 T02370194  RH  077%=      5-min Rain = 0
KCO2 241130Z 18007KT 24/19 A2993 RMK A01 T02370194  RH  077%=      5-min Rain = 0
KCO2 241131Z 18007KT 24/19 A2993 RMK A01 T02360194  RH  077%=      5-min Rain = 0
KCO2 241132Z 17007KT 24/19 A2993 RMK A01 T02360194  RH  077%=      5-min Rain = 0
KCO2 241133Z 17005KT 24/19 A2993 RMK A01 T02360194  RH  077%=      5-min Rain = 0
KCO2 241134Z 18006KT 24/19 A2993 RMK A01 T02360194  RH  077%=      5-min Rain = 0
KCO2 241135Z 17005KT 24/19 A2993 RMK A01 T02360194  RH  077%=      5-min Rain = 0
KCO2 241136Z 17007KT 24/20 A2993 RMK A01 T02360195  RH  078%=      5-min Rain = 0
KCO2 241137Z 17004KT 24/19 A2993 RMK A01 T02350194  RH  078%=      5-min Rain = 0
KCO2 241138Z 16005KT 24/19 A2993 RMK A01 T02350194  RH  078%=      5-min Rain = 0
KCO2 241139Z 16005KT 24/19 A2993 RMK A01 T02350194  RH  078%=      5-min Rain = 0
KCO2 241140Z 15005KT 24/19 A2993 RMK A01 T02350194  RH  078%=      5-min Rain = 0
KCO2 241141Z 15005KT 24/19 A2993 RMK A01 T02350194  RH  078%=      5-min Rain = 0
KCO2 241142Z 15005KT 24/20 A2994 RMK A01 T02350195  RH  078%=      5-min Rain = 0
KCO2 241143Z 15005KT 23/19 A2994 RMK A01 T02340194  RH  078%=      5-min Rain = 0
KCO2 241144Z 15005KT 23/20 A2994 RMK A01 T02340195  RH  078%=      5-min Rain = 0
KCO2 241145Z 14005KT 23/20 A2994 RMK A01 T02340195  RH  078%=      5-min Rain = 0
KCO2 241146Z 13004KT 23/20 A2994 RMK A01 T02340195  RH  079%=      5-min Rain = 0
KCO2 241147Z 13004KT 23/20 A2994 RMK A01 T02330195  RH  079%=      5-min Rain = 0
KCO2 241148Z 12004KT 23/20 A2994 RMK A01 T02330195  RH  079%=      5-min Rain = 0
KCO2 241149Z 12004KT 23/20 A2994 RMK A01 T02330196  RH  079%=      5-min Rain = 0
KCO2 241150Z 12004KT 23/20 A2994 RMK A01 T02320196  RH  080%=      5-min Rain = 0
KCO2 241151Z 12004KT 23/20 A2994 RMK A01 T02320195  RH  080%=      5-min Rain = 0
KCO2 241152Z 12005KT 23/20 A2994 RMK A01 T02320195  RH  080%=      5-min Rain = 0
KCO2 241153Z 13004KT 23/20 A2994 RMK A01 T02320195  RH  080%=      5-min Rain = 0
KCO2 241154Z 13004KT 23/20 A2994 RMK A01 T02320195  RH  080%=      5-min Rain = 0
KCO2 241155Z 13005KT 23/20 A2994 RMK A01 T02320195  RH  079%=      5-min Rain = 0
KCO2 241156Z 14005KT 23/20 A2994 RMK A01 T02330195  RH  079%=      5-min Rain = 0
KCO2 241157Z 13004KT 23/20 A2994 RMK A01 T02330196  RH  079%=      5-min Rain = 0
KCO2 241158Z 13004KT 23/20 A2994 RMK A01 T02330196  RH  080%=      5-min Rain = 0
KCO2 241159Z 14004KT 23/20 A2994 RMK A01 T02330196  RH  080%=      5-min Rain = 0
KCO2 241200Z 14004KT 23/20 A2994 RMK A01 T02330197  RH  080%=      5-min Rain = 0
KCO2 241201Z 14004KT 23/20 A2994 RMK A01 T02320196  RH  080%=      5-min Rain = 0
KCO2 241202Z 14004KT 23/20 A2994 RMK A01 T02330197  RH  080%=      5-min Rain = 0
KCO2 241203Z 15004KT 23/20 A2994 RMK A01 T02320197  RH  080%=      5-min Rain = 0
KCO2 241204Z 15004KT 23/20 A2994 RMK A01 T02320197  RH  080%=      5-min Rain = 0
KCO2 241205Z 15004KT 23/20 A2995 RMK A01 T02320196  RH  080%=      5-min Rain = 0
KCO2 241206Z 15003KT 23/20 A2995 RMK A01 T02320196  RH  080%=      5-min Rain = 0
KCO2 241207Z 15004KT 23/20 A2995 RMK A01 T02320196  RH  080%=      5-min Rain = 0
KCO2 241208Z 16003KT 23/20 A2995 RMK A01 T02320196  RH  080%=      5-min Rain = 0
KCO2 241209Z 16003KT 23/20 A2995 RMK A01 T02320197  RH  080%=      5-min Rain = 0
KCO2 241210Z 15004KT 23/20 A2995 RMK A01 T02320197  RH  081%=      5-min Rain = 0
KCO2 241211Z 17003KT 23/20 A2995 RMK A01 T02320197  RH  081%=      5-min Rain = 0
KCO2 241212Z 16004KT 23/20 A2995 RMK A01 T02320197  RH  081%=      5-min Rain = 0
KCO2 241213Z 16004KT 23/20 A2995 RMK A01 T02320197  RH  081%=      5-min Rain = 0
KCO2 241214Z 15004KT 23/20 A2995 RMK A01 T02320197  RH  081%=      5-min Rain = 0
KCO2 241215Z 16004KT 23/20 A2995 RMK A01 T02320197  RH  081%=      5-min Rain = 0
KCO2 241216Z 16004KT 23/20 A2995 RMK A01 T02320197  RH  081%=      5-min Rain = 0
KCO2 241217Z 15003KT 23/20 A2995 RMK A01 T02320197  RH  081%=      5-min Rain = 0
KCO2 241218Z 15004KT 23/20 A2995 RMK A01 T02320198  RH  081%=      5-min Rain = 0
KCO2 241219Z 15004KT 23/20 A2995 RMK A01 T02310197  RH  081%=      5-min Rain = 0
KCO2 241220Z 14004KT 23/20 A2995 RMK A01 T02310197  RH  081%=      5-min Rain = 0
KCO2 241221Z 14004KT 23/20 A2995 RMK A01 T02310198  RH  082%=      5-min Rain = 0
KCO2 241222Z 14004KT 23/20 A2995 RMK A01 T02310197  RH  081%=      5-min Rain = 0
KCO2 241223Z 14005KT 23/20 A2995 RMK A01 T02310197  RH  081%=      5-min Rain = 0
KCO2 241224Z 14004KT 23/20 A2995 RMK A01 T02310197  RH  081%=      5-min Rain = 0
KCO2 241225Z 14005KT 23/20 A2995 RMK A01 T02310197  RH  081%=      5-min Rain = 0
KCO2 241226Z 14005KT 23/20 A2995 RMK A01 T02310197  RH  081%=      5-min Rain = 0
KCO2 241227Z 14005KT 23/20 A2995 RMK A01 T02310197  RH  081%=      5-min Rain = 0
KCO2 241228Z 14005KT 23/20 A2995 RMK A01 T02300196  RH  081%=      5-min Rain = 0
KCO2 241229Z 14005KT 23/20 A2995 RMK A01 T02310197  RH  081%=      5-min Rain = 0
KCO2 241230Z 14006KT 23/20 A2995 RMK A01 T02310197  RH  081%=      5-min Rain = 0
KCO2 241231Z 15005KT 23/20 A2995 RMK A01 T02310197  RH  081%=      5-min Rain = 0
KCO2 241232Z 14005KT 23/20 A2995 RMK A01 T02310197  RH  081%=      5-min Rain = 0
KCO2 241233Z 14005KT 23/20 A2995 RMK A01 T02310197  RH  081%=      5-min Rain = 0
KCO2 241234Z 14005KT 23/20 A2995 RMK A01 T02310197  RH  081%=      5-min Rain = 0
KCO2 241235Z 14005KT 23/20 A2995 RMK A01 T02310197  RH  081%=      5-min Rain = 0
KCO2 241236Z 14005KT 23/20 A2995 RMK A01 T02310197  RH  081%=      5-min Rain = 0
KCO2 241237Z 14005KT 23/20 A2995 RMK A01 T02310197  RH  081%=      5-min Rain = 0
KCO2 241238Z 14005KT 23/20 A2996 RMK A01 T02310197  RH  081%=      5-min Rain = 0
KCO2 241239Z 14006KT 23/20 A2996 RMK A01 T02310197  RH  081%=      5-min Rain = 0
KCO2 241240Z 14004KT 23/20 A2996 RMK A01 T02310197  RH  081%=      5-min Rain = 0
KCO2 241241Z 15005KT 23/20 A2996 RMK A01 T02310197  RH  081%=      5-min Rain = 0
KCO2 241242Z 15005KT 23/20 A2996 RMK A01 T02310197  RH  081%=      5-min Rain = 0
KCO2 241243Z 14004KT 23/20 A2996 RMK A01 T02310198  RH  082%=      5-min Rain = 0
KCO2 241244Z 14005KT 23/20 A2996 RMK A01 T02300197  RH  082%=      5-min Rain = 0
KCO2 241245Z 14005KT 23/20 A2996 RMK A01 T02300198  RH  082%=      5-min Rain = 0
KCO2 241246Z 14005KT 23/20 A2996 RMK A01 T02300198  RH  082%=      5-min Rain = 0
KCO2 241247Z 14006KT 23/20 A2996 RMK A01 T02300198  RH  082%=      5-min Rain = 0
KCO2 241248Z 14006KT 23/20 A2996 RMK A01 T02300198  RH  082%=      5-min Rain = 0
KCO2 241249Z 14005KT 23/20 A2996 RMK A01 T02300197  RH  082%=      5-min Rain = 0
KCO2 241250Z 14006KT 23/20 A2996 RMK A01 T02300198  RH  082%=      5-min Rain = 0
KCO2 241251Z 14005KT 23/20 A2996 RMK A01 T02300198  RH  082%=      5-min Rain = 0
KCO2 241252Z 13005KT 23/20 A2996 RMK A01 T02290198  RH  083%=      5-min Rain = 0
KCO2 241253Z 13006KT 23/20 A2996 RMK A01 T02290198  RH  083%=      5-min Rain = 0
KCO2 241254Z 13006KT 23/20 A2996 RMK A01 T02290198  RH  082%=      5-min Rain = 0
KCO2 241255Z 13006KT 23/20 A2996 RMK A01 T02290198  RH  082%=      5-min Rain = 0
KCO2 241256Z 14005KT 23/20 A2996 RMK A01 T02290198  RH  082%=      5-min Rain = 0
KCO2 241257Z 13005KT 23/20 A2996 RMK A01 T02290197  RH  082%=      5-min Rain = 0
KCO2 241258Z 13006KT 23/20 A2996 RMK A01 T02290198  RH  083%=      5-min Rain = 0
KCO2 241259Z 13006KT 23/20 A2996 RMK A01 T02290198  RH  083%=      5-min Rain = 0
KCO2 241300Z 13006KT 23/20 A2996 RMK A01 T02290198  RH  083%=      5-min Rain = 0
KCO2 241301Z 13006KT 23/20 A2996 RMK A01 T02290199  RH  083%=      5-min Rain = 0
KCO2 241302Z 14007KT 23/20 A2996 RMK A01 T02290199  RH  083%=      5-min Rain = 0
KCO2 241303Z 14007KT 23/20 A2996 RMK A01 T02280198  RH  083%=      5-min Rain = 0
KCO2 241304Z 14007KT 23/20 A2996 RMK A01 T02280198  RH  083%=      5-min Rain = 0
KCO2 241305Z 14007KT 23/20 A2996 RMK A01 T02290198  RH  083%=      5-min Rain = 0
KCO2 241306Z 14006KT 23/20 A2996 RMK A01 T02290198  RH  083%=      5-min Rain = 0
KCO2 241307Z 14006KT 23/20 A2996 RMK A01 T02290199  RH  083%=      5-min Rain = 0
KCO2 241308Z 13006KT 23/20 A2996 RMK A01 T02290199  RH  083%=      5-min Rain = 0
KCO2 241309Z 13006KT 23/20 A2996 RMK A01 T02290199  RH  084%=      5-min Rain = 0
KCO2 241310Z 13006KT 23/20 A2996 RMK A01 T02280200  RH  084%=      5-min Rain = 0
KCO2 241311Z 14005KT 23/20 A2996 RMK A01 T02280200  RH  084%=      5-min Rain = 0
KCO2 241312Z 14005KT 23/20 A2996 RMK A01 T02280200  RH  084%=      5-min Rain = 0
KCO2 241313Z 14006KT 23/20 A2996 RMK A01 T02270200  RH  085%=      5-min Rain = 0
KCO2 241314Z 14007KT 23/20 A2996 RMK A01 T02270201  RH  085%=      5-min Rain = 0
KCO2 241315Z 15006KT 23/20 A2996 RMK A01 T02270200  RH  085%=      5-min Rain = 0
KCO2 241316Z 14006KT 23/20 A2996 RMK A01 T02270201  RH  085%=      5-min Rain = 0
KCO2 241317Z 14006KT 23/20 A2996 RMK A01 T02260201  RH  086%=      5-min Rain = 0
KCO2 241318Z 14006KT 23/20 A2996 RMK A01 T02260202  RH  086%=      5-min Rain = 0
KCO2 241319Z 14005KT 23/20 A2996 RMK A01 T02250203  RH  087%=      5-min Rain = 0
KCO2 241320Z 14006KT 23/20 A2996 RMK A01 T02250203  RH  087%=      5-min Rain = 0
KCO2 241321Z 14006KT 23/20 A2996 RMK A01 T02250202  RH  087%=      5-min Rain = 0
KCO2 241322Z 14007KT 22/20 A2997 RMK A01 T02240202  RH  087%=      5-min Rain = 0
KCO2 241323Z 14006KT 22/20 A2996 RMK A01 T02240201  RH  087%=      5-min Rain = 0
KCO2 241324Z 13005KT 22/20 A2997 RMK A01 T02240202  RH  087%=      5-min Rain = 0
KCO2 241325Z 13006KT 22/20 A2997 RMK A01 T02240203  RH  088%=      5-min Rain = 0
KCO2 241326Z 13005KT 22/20 A2997 RMK A01 T02240203  RH  088%=      5-min Rain = 0
KCO2 241327Z 13005KT 22/20 A2997 RMK A01 T02240204  RH  089%=      5-min Rain = 0
KCO2 241328Z 13006KT 22/20 A2997 RMK A01 T02230204  RH  089%=      5-min Rain = 0
KCO2 241329Z 13007KT 22/20 A2997 RMK A01 T02230204  RH  089%=      5-min Rain = 0
KCO2 241330Z 13007KT 22/20 A2997 RMK A01 T02230203  RH  089%=      5-min Rain = 0
KCO2 241331Z 13006KT 22/20 A2997 RMK A01 T02230204  RH  089%=      5-min Rain = 0
KCO2 241332Z 13006KT 22/20 A2997 RMK A01 T02230204  RH  089%=      5-min Rain = 0
KCO2 241333Z 13006KT 22/21 A2997 RMK A01 T02230205  RH  090%=      5-min Rain = 0
KCO2 241334Z 13006KT 22/21 A2996 RMK A01 T02230205  RH  090%=      5-min Rain = 0
KCO2 241335Z 13006KT 22/21 A2996 RMK A01 T02230205  RH  090%=      5-min Rain = 0
KCO2 241336Z 13007KT 22/21 A2996 RMK A01 T02230205  RH  090%=      5-min Rain = 0
KCO2 241337Z 13007KT 22/21 A2996 RMK A01 T02230205  RH  090%=      5-min Rain = 0
KCO2 241338Z 13008KT 22/21 A2996 RMK A01 T02230205  RH  089%=      5-min Rain = 0
KCO2 241339Z 13007KT 22/21 A2996 RMK A01 T02240205  RH  089%=      5-min Rain = 0
KCO2 241340Z 13008KT 22/21 A2996 RMK A01 T02240205  RH  089%=      5-min Rain = 0
KCO2 241341Z 14007KT 23/21 A2996 RMK A01 T02250206  RH  089%=      5-min Rain = 0
KCO2 241342Z 13008KT 23/21 A2996 RMK A01 T02250205  RH  089%=      5-min Rain = 0
KCO2 241343Z 13009KT 23/21 A2996 RMK A01 T02250205  RH  088%=      5-min Rain = 0
KCO2 241344Z 13008KT 23/21 A2996 RMK A01 T02260205  RH  088%=      5-min Rain = 0
KCO2 241345Z 13008KT 23/21 A2996 RMK A01 T02260205  RH  088%=      5-min Rain = 0
KCO2 241346Z 13008KT 23/21 A2996 RMK A01 T02260206  RH  088%=      5-min Rain = 0
KCO2 241347Z 13008KT 23/21 A2996 RMK A01 T02260206  RH  088%=      5-min Rain = 0
KCO2 241348Z 13008KT 23/21 A2996 RMK A01 T02270206  RH  088%=      5-min Rain = 0
KCO2 241349Z 13008KT 23/21 A2996 RMK A01 T02270206  RH  088%=      5-min Rain = 0
KCO2 241350Z 13009KT 23/21 A2996 RMK A01 T02270206  RH  088%=      5-min Rain = 0
KCO2 241351Z 13009KT 23/20 A2996 RMK A01 T02270204  RH  087%=      5-min Rain = 0
KCO2 241352Z 13009KT 23/21 A2996 RMK A01 T02280205  RH  087%=      5-min Rain = 0
KCO2 241353Z 14009KT 23/21 A2996 RMK A01 T02280206  RH  087%=      5-min Rain = 0
KCO2 241354Z 14010KT 23/21 A2996 RMK A01 T02290205  RH  086%=      5-min Rain = 0
KCO2 241355Z 14008KT 23/21 A2996 RMK A01 T02290205  RH  086%=      5-min Rain = 0
KCO2 241356Z 13008KT 23/21 A2996 RMK A01 T02300206  RH  087%=      5-min Rain = 0
KCO2 241357Z 14008KT 23/21 A2996 RMK A01 T02300206  RH  086%=      5-min Rain = 0
KCO2 241358Z 14008KT 23/21 A2996 RMK A01 T02310206  RH  086%=      5-min Rain = 0
KCO2 241359Z 13010KT 23/21 A2996 RMK A01 T02310206  RH  086%=      5-min Rain = 0
KCO2 241400Z 13011KT 23/21 A2996 RMK A01 T02320205  RH  085%=      5-min Rain = 0
KCO2 241401Z 14010KT 23/21 A2996 RMK A01 T02320205  RH  085%=      5-min Rain = 0
KCO2 241402Z 14010KT 23/21 A2996 RMK A01 T02330205  RH  084%=      5-min Rain = 0
KCO2 241403Z 14010KT 23/20 A2996 RMK A01 T02330204  RH  084%=      5-min Rain = 0
KCO2 241404Z 14010KT 23/20 A2996 RMK A01 T02330204  RH  084%=      5-min Rain = 0
KCO2 241405Z 14009KT 23/20 A2996 RMK A01 T02330204  RH  084%=      5-min Rain = 0
KCO2 241406Z 14010KT 23/20 A2996 RMK A01 T02330204  RH  084%=      5-min Rain = 0
KCO2 241407Z 14008KT 23/21 A2996 RMK A01 T02330205  RH  084%=      5-min Rain = 0
KCO2 241408Z 14010KT 23/21 A2996 RMK A01 T02330205  RH  084%=      5-min Rain = 0
KCO2 241409Z 14011KT 23/20 A2996 RMK A01 T02330204  RH  084%=      5-min Rain = 0
KCO2 241410Z 14011KT 23/20 A2996 RMK A01 T02340203  RH  083%=      5-min Rain = 0
KCO2 241411Z 14011KT 23/20 A2996 RMK A01 T02340203  RH  083%=      5-min Rain = 0
KCO2 241412Z 14011KT 23/20 A2996 RMK A01 T02330202  RH  083%=      5-min Rain = 0
KCO2 241413Z 15011KT 23/20 A2996 RMK A01 T02330202  RH  083%=      5-min Rain = 0
KCO2 241414Z 14011KT 23/20 A2996 RMK A01 T02330203  RH  083%=      5-min Rain = 0
KCO2 241415Z 15009KT 23/20 A2996 RMK A01 T02340203  RH  083%=      5-min Rain = 0
KCO2 241416Z 14012KT 23/20 A2996 RMK A01 T02340203  RH  083%=      5-min Rain = 0
KCO2 241417Z 14013KT 23/20 A2996 RMK A01 T02340202  RH  082%=      5-min Rain = 0
KCO2 241418Z 14012KT 23/20 A2996 RMK A01 T02340202  RH  082%=      5-min Rain = 0
KCO2 241419Z 14011KT 23/20 A2996 RMK A01 T02340202  RH  082%=      5-min Rain = 0
KCO2 241420Z 14010KT 23/20 A2996 RMK A01 T02340202  RH  083%=      5-min Rain = 0
KCO2 241421Z 14011KT 23/20 A2996 RMK A01 T02340203  RH  083%=      5-min Rain = 0
KCO2 241422Z 15011KT 23/20 A2996 RMK A01 T02340202  RH  082%=      5-min Rain = 0
KCO2 241423Z 14011KT 24/20 A2996 RMK A01 T02350203  RH  082%=      5-min Rain = 0
KCO2 241424Z 14010KT 24/20 A2996 RMK A01 T02350203  RH  082%=      5-min Rain = 0
KCO2 241425Z 14011KT 24/20 A2996 RMK A01 T02350204  RH  083%=      5-min Rain = 0
KCO2 241426Z 14011KT 24/20 A2996 RMK A01 T02350203  RH  082%=      5-min Rain = 0
KCO2 241427Z 14010KT 24/20 A2996 RMK A01 T02350203  RH  082%=      5-min Rain = 0
KCO2 241428Z 14010KT 24/20 A2996 RMK A01 T02360204  RH  082%=      5-min Rain = 0
KCO2 241429Z 13011KT 24/20 A2996 RMK A01 T02360204  RH  082%=      5-min Rain = 0
KCO2 241430Z 13014KT 24/20 A2996 RMK A01 T02360203  RH  082%=      5-min Rain = 0
KCO2 241431Z 13014KT 24/20 A2996 RMK A01 T02370203  RH  081%=      5-min Rain = 0
KCO2 241432Z 13014KT 24/20 A2996 RMK A01 T02370203  RH  081%=      5-min Rain = 0
KCO2 241433Z 13013KT 24/20 A2996 RMK A01 T02370203  RH  081%=      5-min Rain = 0
KCO2 241434Z 13013KT 24/20 A2995 RMK A01 T02370203  RH  081%=      5-min Rain = 0
KCO2 241435Z 13013G19KT 24/20 A2995 RMK A01 T02370203  RH  081%=      5-min Rain = 0
KCO2 241436Z 13012KT 24/20 A2996 RMK A01 T02380204  RH  081%=      5-min Rain = 0
KCO2 241437Z 13012KT 24/20 A2995 RMK A01 T02380203  RH  081%=      5-min Rain = 0
KCO2 241438Z 13011KT 24/20 A2996 RMK A01 T02390204  RH  081%=      5-min Rain = 0
KCO2 241439Z 13012KT 24/20 A2996 RMK A01 T02390204  RH  081%=      5-min Rain = 0
KCO2 241440Z 13012G17KT 24/20 A2996 RMK A01 T02400204  RH  080%=      5-min Rain = 0
KCO2 241441Z 14015KT 24/20 A2996 RMK A01 T02410203  RH  080%=      5-min Rain = 0
KCO2 241442Z 13014KT 24/20 A2996 RMK A01 T02410203  RH  079%=      5-min Rain = 0
KCO2 241443Z 14013G18KT 24/20 A2996 RMK A01 T02410203  RH  079%=      5-min Rain = 0
KCO2 241444Z 13013KT 24/20 A2996 RMK A01 T02420204  RH  079%=      5-min Rain = 0
KCO2 241445Z 13013KT 24/21 A2996 RMK A01 T02440205  RH  079%=      5-min Rain = 0
KCO2 241446Z 14013KT 25/21 A2996 RMK A01 T02450205  RH  078%=      5-min Rain = 0
KCO2 241447Z 13010KT 25/21 A2996 RMK A01 T02450205  RH  078%=      5-min Rain = 0
KCO2 241448Z 14009KT 25/21 A2996 RMK A01 T02460208  RH  079%=      5-min Rain = 0
KCO2 241449Z 14012KT 25/21 A2996 RMK A01 T02480206  RH  078%=      5-min Rain = 0
KCO2 241450Z 14011KT 25/21 A2996 RMK A01 T02480206  RH  077%=      5-min Rain = 0
KCO2 241451Z 14010KT 25/21 A2996 RMK A01 T02480207  RH  078%=      5-min Rain = 0
KCO2 241452Z 14011KT 25/21 A2996 RMK A01 T02470207  RH  078%=      5-min Rain = 0
KCO2 241453Z 14011KT 25/21 A2996 RMK A01 T02480206  RH  078%=      5-min Rain = 0
KCO2 241454Z 14014KT 25/21 A2996 RMK A01 T02490206  RH  077%=      5-min Rain = 0
KCO2 241455Z 13012KT 25/21 A2996 RMK A01 T02500206  RH  077%=      5-min Rain = 0
KCO2 241456Z 14012KT 25/21 A2996 RMK A01 T02500206  RH  077%=      5-min Rain = 0
KCO2 241457Z 14013KT 25/21 A2996 RMK A01 T02490206  RH  077%=      5-min Rain = 0
KCO2 241458Z 14012KT 25/21 A2996 RMK A01 T02490205  RH  077%=      5-min Rain = 0
KCO2 241459Z 14011KT 25/21 A2996 RMK A01 T02500207  RH  077%=      5-min Rain = 0
KCO2 241500Z 14012KT 25/21 A2996 RMK A01 T02510207  RH  076%=      5-min Rain = 0
KCO2 241501Z 14016KT 25/21 A2996 RMK A01 T02520206  RH  076%=      5-min Rain = 0
KCO2 241502Z 14015KT 25/21 A2996 RMK A01 T02530205  RH  075%=      5-min Rain = 0
KCO2 241503Z 15014KT 25/21 A2996 RMK A01 T02520206  RH  076%=      5-min Rain = 0
KCO2 241504Z 15015KT 25/21 A2996 RMK A01 T02530205  RH  075%=      5-min Rain = 0
KCO2 241505Z 14012KT 25/21 A2996 RMK A01 T02530207  RH  076%=      5-min Rain = 0
KCO2 241506Z 15014KT 25/21 A2996 RMK A01 T02540208  RH  076%=      5-min Rain = 0
KCO2 241507Z 14014KT 26/21 A2996 RMK A01 T02550208  RH  075%=      5-min Rain = 0
KCO2 241508Z 14016KT 26/21 A2996 RMK A01 T02550207  RH  074%=      5-min Rain = 0
KCO2 241509Z 13013KT 26/21 A2995 RMK A01 T02550208  RH  075%=      5-min Rain = 0
KCO2 241510Z 14015KT 26/21 A2995 RMK A01 T02550207  RH  075%=      5-min Rain = 0
KCO2 241511Z 14014KT 26/21 A2996 RMK A01 T02560207  RH  075%=      5-min Rain = 0
KCO2 241512Z 14012KT 26/21 A2995 RMK A01 T02560209  RH  075%=      5-min Rain = 0
KCO2 241513Z 15017KT 26/21 A2995 RMK A01 T02570207  RH  074%=      5-min Rain = 0
KCO2 241514Z 15016KT 26/21 A2995 RMK A01 T02570207  RH  074%=      5-min Rain = 0
KCO2 241515Z 14015KT 26/21 A2996 RMK A01 T02560207  RH  074%=      5-min Rain = 0
KCO2 241516Z 15013KT 26/21 A2995 RMK A01 T02560208  RH  075%=      5-min Rain = 0
KCO2 241517Z 14014KT 26/21 A2995 RMK A01 T02570208  RH  075%=      5-min Rain = 0
KCO2 241518Z 15015KT 26/21 A2995 RMK A01 T02580208  RH  074%=      5-min Rain = 0
KCO2 241519Z 15017KT 26/21 A2995 RMK A01 T02570208  RH  074%=      5-min Rain = 0
KCO2 241520Z 15014KT 26/21 A2995 RMK A01 T02580207  RH  074%=      5-min Rain = 0
KCO2 241521Z 15015KT 26/21 A2995 RMK A01 T02580209  RH  074%=      5-min Rain = 0
KCO2 241522Z 15016KT 26/21 A2995 RMK A01 T02580208  RH  074%=      5-min Rain = 0
KCO2 241523Z 15015KT 26/21 A2995 RMK A01 T02580207  RH  074%=      5-min Rain = 0
KCO2 241524Z 15016KT 26/21 A2995 RMK A01 T02570207  RH  074%=      5-min Rain = 0
KCO2 241525Z 15013KT 26/21 A2996 RMK A01 T02570209  RH  075%=      5-min Rain = 0
KCO2 241526Z 14016KT 26/21 A2996 RMK A01 T02570208  RH  074%=      5-min Rain = 0
KCO2 241527Z 14017KT 26/21 A2995 RMK A01 T02580209  RH  074%=      5-min Rain = 0
KCO2 241528Z 14018KT 26/21 A2995 RMK A01 T02590208  RH  074%=      5-min Rain = 0
KCO2 241529Z 15016KT 26/21 A2995 RMK A01 T02580208  RH  074%=      5-min Rain = 0
KCO2 241530Z 15015KT 26/21 A2995 RMK A01 T02580208  RH  074%=      5-min Rain = 0
KCO2 241531Z 14017KT 26/21 A2995 RMK A01 T02590210  RH  075%=      5-min Rain = 0
KCO2 241532Z 15016KT 26/21 A2995 RMK A01 T02600209  RH  074%=      5-min Rain = 0
KCO2 241533Z 15020KT 26/21 A2996 RMK A01 T02590208  RH  073%=      5-min Rain = 0
KCO2 241534Z 15015KT 26/21 A2996 RMK A01 T02560207  RH  074%=      5-min Rain = 0
KCO2 241535Z 14015KT 26/21 A2996 RMK A01 T02550209  RH  075%=      5-min Rain = 0
KCO2 241536Z 16016KT 26/21 A2996 RMK A01 T02550208  RH  075%=      5-min Rain = 0
KCO2 241537Z 16013KT 26/21 A2995 RMK A01 T02560209  RH  075%=      5-min Rain = 0
KCO2 241538Z 15012G18KT 26/21 A2995 RMK A01 T02580212  RH  076%=      5-min Rain = 0
KCO2 241539Z 15016G22KT 26/21 A2996 RMK A01 T02620211  RH  074%=      5-min Rain = 0
KCO2 241540Z 16018KT 26/21 A2996 RMK A01 T02620210  RH  073%=      5-min Rain = 0
KCO2 241541Z 15015KT 26/21 A2996 RMK A01 T02590210  RH  074%=      5-min Rain = 0
KCO2 241542Z 15014KT 26/21 A2996 RMK A01 T02580210  RH  075%=      5-min Rain = 0
KCO2 241543Z 15016KT 26/21 A2996 RMK A01 T02570210  RH  075%=      5-min Rain = 0
KCO2 241544Z 16015G20KT 26/21 A2996 RMK A01 T02580211  RH  075%=      5-min Rain = 0
KCO2 241545Z 16013G18KT 26/21 A2996 RMK A01 T02600211  RH  075%=      5-min Rain = 0
KCO2 241546Z 15014KT 26/21 A2996 RMK A01 T02600211  RH  074%=      5-min Rain = 0
KCO2 241547Z 16019KT 26/21 A2996 RMK A01 T02590209  RH  074%=      5-min Rain = 0
KCO2 241548Z 16015G20KT 26/21 A2996 RMK A01 T02580210  RH  075%=      5-min Rain = 0
KCO2 241549Z 16015KT 26/21 A2996 RMK A01 T02590212  RH  075%=      5-min Rain = 0
KCO2 241550Z 16018KT 26/21 A2996 RMK A01 T02620212  RH  074%=      5-min Rain = 0
KCO2 241551Z 16020G26KT 26/21 A2996 RMK A01 T02620209  RH  073%=      5-min Rain = 0
KCO2 241552Z 16016KT 26/21 A2996 RMK A01 T02600208  RH  073%=      5-min Rain = 0
KCO2 241553Z 17015KT 26/21 A2996 RMK A01 T02580209  RH  074%=      5-min Rain = 0
KCO2 241554Z 16012KT 26/21 A2996 RMK A01 T02570210  RH  075%=      5-min Rain = 0
KCO2 241555Z 15015G21KT 26/21 A2996 RMK A01 T02590214  RH  076%=      5-min Rain = 0
KCO2 241556Z 16018KT 26/21 A2996 RMK A01 T02620211  RH  074%=      5-min Rain = 0
KCO2 241557Z 16017KT 26/21 A2996 RMK A01 T02630211  RH  073%=      5-min Rain = 0
KCO2 241558Z 15015G20KT 26/21 A2996 RMK A01 T02630212  RH  073%=      5-min Rain = 0
KCO2 241559Z 15015G21KT 27/21 A2996 RMK A01 T02650213  RH  073%=      5-min Rain = 0
KCO2 241600Z 16015G20KT 27/21 A2996 RMK A01 T02660212  RH  072%=      5-min Rain = 0
KCO2 241601Z 16015KT 26/21 A2996 RMK A01 T02640211  RH  073%=      5-min Rain = 0
KCO2 241602Z 17018KT 26/21 A2996 RMK A01 T02620210  RH  073%=      5-min Rain = 0
KCO2 241603Z 16016KT 26/21 A2996 RMK A01 T02590209  RH  074%=      5-min Rain = 0
KCO2 241604Z 16018KT 26/21 A2996 RMK A01 T02570210  RH  075%=      5-min Rain = 0
KCO2 241605Z 15015KT 26/21 A2996 RMK A01 T02580211  RH  075%=      5-min Rain = 0
KCO2 241606Z 15015G21KT 26/21 A2996 RMK A01 T02620214  RH  075%=      5-min Rain = 0
KCO2 241607Z 16016KT 26/21 A2996 RMK A01 T02640212  RH  073%=      5-min Rain = 0
KCO2 241608Z 15016KT 26/21 A2996 RMK A01 T02630211  RH  073%=      5-min Rain = 0
KCO2 241609Z 15015KT 26/21 A2996 RMK A01 T02640212  RH  073%=      5-min Rain = 0
KCO2 241610Z 16012KT 27/22 A2996 RMK A01 T02660216  RH  074%=      5-min Rain = 0
KCO2 241611Z 15012KT 27/22 A2996 RMK A01 T02700218  RH  073%=      5-min Rain = 0
KCO2 241612Z 15015KT 27/22 A2996 RMK A01 T02720215  RH  071%=      5-min Rain = 0
KCO2 241613Z 15014KT 27/22 A2996 RMK A01 T02700215  RH  072%=      5-min Rain = 0
KCO2 241614Z 16016KT 27/21 A2996 RMK A01 T02700214  RH  071%=      5-min Rain = 0
KCO2 241615Z 16016KT 27/21 A2996 RMK A01 T02690214  RH  071%=      5-min Rain = 0
KCO2 241616Z 16017KT 27/21 A2996 RMK A01 T02690213  RH  072%=      5-min Rain = 0
KCO2 241617Z 15017KT 27/21 A2996 RMK A01 T02690213  RH  071%=      5-min Rain = 0
KCO2 241618Z 16013KT 27/21 A2996 RMK A01 T02690213  RH  071%=      5-min Rain = 0
KCO2 241619Z 15015KT 27/22 A2996 RMK A01 T02690215  RH  072%=      5-min Rain = 0
KCO2 241620Z 15016KT 27/21 A2996 RMK A01 T02700214  RH  072%=      5-min Rain = 0
KCO2 241621Z 16014KT 27/22 A2996 RMK A01 T02700215  RH  072%=      5-min Rain = 0
KCO2 241622Z 15017KT 27/21 A2996 RMK A01 T02690212  RH  071%=      5-min Rain = 0
KCO2 241623Z 15015KT 27/21 A2996 RMK A01 T02650212  RH  072%=      5-min Rain = 0
KCO2 241624Z 15016KT 26/21 A2996 RMK A01 T02630212  RH  073%=      5-min Rain = 0
KCO2 241625Z 16016KT 26/21 A2996 RMK A01 T02630213  RH  074%=      5-min Rain = 0
KCO2 241626Z 16015KT 27/21 A2996 RMK A01 T02660214  RH  073%=      5-min Rain = 0
KCO2 241627Z 16013KT 27/22 A2996 RMK A01 T02680215  RH  073%=      5-min Rain = 0
KCO2 241628Z 16015KT 27/22 A2996 RMK A01 T02700216  RH  072%=      5-min Rain = 0
KCO2 241629Z 16015KT 27/22 A2996 RMK A01 T02700215  RH  072%=      5-min Rain = 0
KCO2 241630Z 17017KT 27/22 A2996 RMK A01 T02700215  RH  072%=      5-min Rain = 0
KCO2 241631Z 17016KT 27/22 A2996 RMK A01 T02700215  RH  071%=      5-min Rain = 0
KCO2 241632Z 17015KT 27/22 A2996 RMK A01 T02700215  RH  072%=      5-min Rain = 0
KCO2 241633Z 16016KT 27/22 A2996 RMK A01 T02700215  RH  072%=      5-min Rain = 0
KCO2 241634Z 17016KT 27/21 A2996 RMK A01 T02700214  RH  071%=      5-min Rain = 0
KCO2 241635Z 16014G20KT 27/21 A2996 RMK A01 T02710213  RH  071%=      5-min Rain = 0
KCO2 241636Z 17015KT 27/22 A2996 RMK A01 T02700215  RH  072%=      5-min Rain = 0
KCO2 241637Z 16014KT 27/21 A2996 RMK A01 T02690214  RH  072%=      5-min Rain = 0
KCO2 241638Z 16016KT 27/22 A2996 RMK A01 T02690215  RH  072%=      5-min Rain = 0
KCO2 241639Z 17017KT 27/21 A2996 RMK A01 T02680213  RH  072%=      5-min Rain = 0
KCO2 241640Z 16017G23KT 27/21 A2996 RMK A01 T02650212  RH  073%=      5-min Rain = 0
KCO2 241641Z 16019KT 26/21 A2996 RMK A01 T02630211  RH  073%=      5-min Rain = 0
KCO2 241642Z 16017KT 26/21 A2996 RMK A01 T02610211  RH  074%=      5-min Rain = 0
KCO2 241643Z 17016KT 26/21 A2996 RMK A01 T02600211  RH  075%=      5-min Rain = 0
KCO2 241644Z 16016G21KT 26/21 A2996 RMK A01 T02600212  RH  075%=      5-min Rain = 0
KCO2 241645Z 16016KT 26/21 A2996 RMK A01 T02590212  RH  075%=      5-min Rain = 0
KCO2 241646Z 16015KT 26/21 A2996 RMK A01 T02590211  RH  075%=      5-min Rain = 0
KCO2 241647Z 16017G22KT 26/21 A2996 RMK A01 T02600212  RH  075%=      5-min Rain = 0
KCO2 241648Z 17015KT 26/21 A2996 RMK A01 T02600211  RH  075%=      5-min Rain = 0
KCO2 241649Z 17014KT 26/21 A2996 RMK A01 T02600213  RH  075%=      5-min Rain = 0
KCO2 241650Z 16016KT 26/21 A2997 RMK A01 T02590213  RH  075%=      5-min Rain = 0
KCO2 241651Z 16016KT 26/21 A2996 RMK A01 T02590212  RH  075%=      5-min Rain = 0
KCO2 241652Z 17018KT 26/21 A2996 RMK A01 T02580211  RH  075%=      5-min Rain = 0
KCO2 241653Z 17014KT 26/21 A2996 RMK A01 T02580212  RH  076%=      5-min Rain = 0
KCO2 241654Z 16013KT 26/21 A2996 RMK A01 T02580214  RH  077%=      5-min Rain = 0
KCO2 241655Z 15017KT 26/21 A2996 RMK A01 T02590212  RH  075%=      5-min Rain = 0
KCO2 241656Z 16016G21KT 26/21 A2996 RMK A01 T02600212  RH  075%=      5-min Rain = 0
KCO2 241657Z 16014G19KT 26/21 A2996 RMK A01 T02620214  RH  075%=      5-min Rain = 0
KCO2 241658Z 16014KT 27/22 A2996 RMK A01 T02660216  RH  074%=      5-min Rain = 0
KCO2 241659Z 17012KT 27/22 A2996 RMK A01 T02670215  RH  073%=      5-min Rain = 0
KCO2 241700Z 16012KT 27/22 A2996 RMK A01 T02670215  RH  073%=      5-min Rain = 0
KCO2 241701Z 15014KT 27/22 A2996 RMK A01 T02660215  RH  073%=      5-min Rain = 0
KCO2 241702Z 16017G23KT 27/22 A2996 RMK A01 T02650215  RH  074%=      5-min Rain = 0
KCO2 241703Z 16018KT 27/21 A2996 RMK A01 T02650213  RH  073%=      5-min Rain = 0
KCO2 241704Z 16018G24KT 26/21 A2996 RMK A01 T02630212  RH  073%=      5-min Rain = 0
KCO2 241705Z 17015KT 26/21 A2996 RMK A01 T02620212  RH  074%=      5-min Rain = 0
KCO2 241706Z 17015KT 26/21 A2996 RMK A01 T02620214  RH  075%=      5-min Rain = 0
KCO2 241707Z 17013G18KT 26/21 A2996 RMK A01 T02630214  RH  074%=      5-min Rain = 0
KCO2 241708Z 17012G17KT 27/22 A2996 RMK A01 T02660215  RH  074%=      5-min Rain = 0
KCO2 241709Z 18014KT 27/22 A2996 RMK A01 T02680217  RH  074%=      5-min Rain = 0
KCO2 241710Z 17014KT 27/22 A2996 RMK A01 T02680215  RH  073%=      5-min Rain = 0
KCO2 241711Z 17013KT 27/22 A2996 RMK A01 T02690218  RH  074%=      5-min Rain = 0
KCO2 241712Z 16016G21KT 27/22 A2996 RMK A01 T02700217  RH  073%=      5-min Rain = 0
KCO2 241713Z 15018KT 27/22 A2996 RMK A01 T02700215  RH  072%=      5-min Rain = 0
KCO2 241714Z 16016KT 27/22 A2996 RMK A01 T02690215  RH  072%=      5-min Rain = 0
KCO2 241715Z 16017KT 27/22 A2996 RMK A01 T02690215  RH  072%=      5-min Rain = 0
KCO2 241716Z 17015KT 27/21 A2996 RMK A01 T02680214  RH  072%=      5-min Rain = 0
KCO2 241717Z 16017KT 27/22 A2996 RMK A01 T02670215  RH  073%=      5-min Rain = 0
KCO2 241718Z 17017KT 27/21 A2996 RMK A01 T02670214  RH  073%=      5-min Rain = 0
KCO2 241719Z 17020KT 27/21 A2996 RMK A01 T02660214  RH  073%=      5-min Rain = 0
KCO2 241720Z 17013KT 27/22 A2996 RMK A01 T02650215  RH  074%=      5-min Rain = 0
KCO2 241721Z 16016KT 27/22 A2996 RMK A01 T02660216  RH  074%=      5-min Rain = 0
KCO2 241722Z 16016KT 27/21 A2996 RMK A01 T02670214  RH  073%=      5-min Rain = 0
KCO2 241723Z 17018KT 27/22 A2996 RMK A01 T02680216  RH  073%=      5-min Rain = 0
KCO2 241724Z 17016KT 27/22 A2996 RMK A01 T02680216  RH  073%=      5-min Rain = 0
KCO2 241725Z 16013G18KT 27/22 A2996 RMK A01 T02680216  RH  073%=      5-min Rain = 0
KCO2 241726Z 15013G19KT 27/22 A2996 RMK A01 T02700220  RH  074%=      5-min Rain = 0
KCO2 241727Z 15014KT 27/22 A2996 RMK A01 T02730218  RH  072%=      5-min Rain = 0
KCO2 241728Z 16016KT 28/22 A2996 RMK A01 T02760220  RH  072%=      5-min Rain = 0
KCO2 241729Z 16020KT 28/22 A2996 RMK A01 T02770217  RH  070%=      5-min Rain = 0
KCO2 241730Z 16016G22KT 28/22 A2996 RMK A01 T02760217  RH  070%=      5-min Rain = 0
KCO2 241731Z 17019KT 27/22 A2996 RMK A01 T02740217  RH  071%=      5-min Rain = 0
KCO2 241732Z 17014KT 27/22 A2996 RMK A01 T02710217  RH  072%=      5-min Rain = 0
KCO2 241733Z 17018KT 27/22 A2996 RMK A01 T02710218  RH  073%=      5-min Rain = 0
KCO2 241734Z 16015KT 27/22 A2996 RMK A01 T02700217  RH  072%=      5-min Rain = 0
KCO2 241735Z 15015G20KT 27/22 A2996 RMK A01 T02700218  RH  073%=      5-min Rain = 0
KCO2 241736Z 16015G20KT 27/22 A2996 RMK A01 T02690215  RH  072%=      5-min Rain = 0
KCO2 241737Z 15012G18KT 27/22 A2996 RMK A01 T02680217  RH  074%=      5-min Rain = 0
KCO2 241738Z 15018KT 27/22 A2996 RMK A01 T02670215  RH  073%=      5-min Rain = 0
KCO2 241739Z 16018KT 27/21 A2996 RMK A01 T02660214  RH  073%=      5-min Rain = 0
KCO2 241740Z 17017KT 27/21 A2996 RMK A01 T02660214  RH  073%=      5-min Rain = 0
KCO2 241741Z 17015KT 27/21 A2996 RMK A01 T02650214  RH  073%=      5-min Rain = 0
KCO2 241742Z 16015G20KT 27/22 A2996 RMK A01 T02650216  RH  074%=      5-min Rain = 0
KCO2 241743Z 16014KT 27/22 A2996 RMK A01 T02650216  RH  075%=      5-min Rain = 0
KCO2 241744Z 16017KT 26/21 A2996 RMK A01 T02640214  RH  074%=      5-min Rain = 0
KCO2 241745Z 16018KT 26/21 A2996 RMK A01 T02630214  RH  074%=      5-min Rain = 0
KCO2 241746Z 16017KT 26/21 A2996 RMK A01 T02620214  RH  075%=      5-min Rain = 0
KCO2 241747Z 16017KT 26/21 A2996 RMK A01 T02630214  RH  075%=      5-min Rain = 0
KCO2 241748Z 16015KT 26/21 A2996 RMK A01 T02620214  RH  075%=      5-min Rain = 0
KCO2 241749Z 16017KT 26/21 A2996 RMK A01 T02620213  RH  075%=      5-min Rain = 0
KCO2 241750Z 16014G20KT 26/21 A2996 RMK A01 T02620214  RH  075%=      5-min Rain = 0
KCO2 241751Z 16019KT 26/21 A2996 RMK A01 T02620213  RH  075%=      5-min Rain = 0
KCO2 241752Z 16017KT 26/21 A2996 RMK A01 T02620213  RH  074%=      5-min Rain = 0
KCO2 241753Z 17017KT 26/21 A2996 RMK A01 T02610213  RH  075%=      5-min Rain = 0
KCO2 241754Z 17014KT 26/21 A2996 RMK A01 T02610213  RH  075%=      5-min Rain = 0
KCO2 241755Z 16012KT 26/21 A2996 RMK A01 T02610214  RH  075%=      5-min Rain = 0
KCO2 241756Z 16017G22KT 26/21 A2996 RMK A01 T02620214  RH  075%=      5-min Rain = 0
KCO2 241757Z 16017G22KT 26/21 A2996 RMK A01 T02630213  RH  074%=      5-min Rain = 0
KCO2 241758Z 17017KT 26/21 A2996 RMK A01 T02640213  RH  074%=      5-min Rain = 0
KCO2 241759Z 16017KT 27/21 A2996 RMK A01 T02650213  RH  073%=      5-min Rain = 0
KCO2 241800Z 16016KT 27/21 A2996 RMK A01 T02650214  RH  073%=      5-min Rain = 0
KCO2 241801Z 16015G20KT 27/21 A2996 RMK A01 T02660214  RH  073%=      5-min Rain = 0
KCO2 241802Z 17014KT 27/22 A2996 RMK A01 T02680217  RH  074%=      5-min Rain = 0
KCO2 241803Z 17015KT 27/22 A2996 RMK A01 T02710219  RH  073%=      5-min Rain = 0
KCO2 241804Z 16016G21KT 27/22 A2996 RMK A01 T02740217  RH  071%=      5-min Rain = 0
KCO2 241805Z 16013KT 27/22 A2996 RMK A01 T02740217  RH  071%=      5-min Rain = 0
KCO2 241806Z 17016G21KT 27/22 A2996 RMK A01 T02740216  RH  071%=      5-min Rain = 0
KCO2 241807Z 16018KT 27/22 A2996 RMK A01 T02720215  RH  071%=      5-min Rain = 0
KCO2 241808Z 16016G21KT 27/21 A2996 RMK A01 T02700213  RH  071%=      5-min Rain = 0
KCO2 241809Z 16016G22KT 27/21 A2996 RMK A01 T02680213  RH  072%=      5-min Rain = 0
KCO2 241810Z 16016G21KT 27/21 A2996 RMK A01 T02670213  RH  072%=      5-min Rain = 0
KCO2 241811Z 16017G22KT 27/21 A2996 RMK A01 T02660214  RH  073%=      5-min Rain = 0
KCO2 241812Z 16016G22KT 27/21 A2996 RMK A01 T02650212  RH  073%=      5-min Rain = 0
KCO2 241813Z 16017G22KT 26/21 A2996 RMK A01 T02640212  RH  073%=      5-min Rain = 0
KCO2 241814Z 16014KT 26/21 A2996 RMK A01 T02630213  RH  074%=      5-min Rain = 0
KCO2 241815Z 16016KT 26/21 A2996 RMK A01 T02630214  RH  074%=      5-min Rain = 0
KCO2 241816Z 16014KT 26/21 A2996 RMK A01 T02630213  RH  074%=      5-min Rain = 0
KCO2 241817Z 17014KT 26/21 A2996 RMK A01 T02620213  RH  074%=      5-min Rain = 0
KCO2 241818Z 16018KT 26/21 A2996 RMK A01 T02620212  RH  074%=      5-min Rain = 0
KCO2 241819Z 16014G19KT 26/21 A2996 RMK A01 T02610212  RH  075%=      5-min Rain = 0
KCO2 241820Z 16014KT 26/21 A2996 RMK A01 T02610214  RH  075%=      5-min Rain = 0
KCO2 241821Z 16011KT 26/22 A2996 RMK A01 T02600215  RH  076%=      5-min Rain = 0
KCO2 241822Z 16018KT 26/21 A2996 RMK A01 T02600214  RH  076%=      5-min Rain = 0
KCO2 241823Z 16015KT 26/21 A2996 RMK A01 T02600213  RH  075%=      5-min Rain = 0
KCO2 241824Z 16015KT 26/21 A2996 RMK A01 T02600213  RH  075%=      5-min Rain = 0
KCO2 241825Z 16012KT 26/21 A2996 RMK A01 T02590213  RH  076%=      5-min Rain = 0
KCO2 241826Z 16013KT 26/22 A2996 RMK A01 T02590215  RH  076%=      5-min Rain = 0
KCO2 241827Z 17013KT 26/22 A2996 RMK A01 T02590216  RH  077%=      5-min Rain = 0
KCO2 241828Z 17016KT 26/22 A2996 RMK A01 T02590215  RH  077%=      5-min Rain = 0
KCO2 241829Z 16017KT 26/21 A2996 RMK A01 T02590213  RH  076%=      5-min Rain = 0
KCO2 241830Z 17015KT 26/21 A2996 RMK A01 T02590213  RH  076%=      5-min Rain = 0
KCO2 241831Z 17014G22KT 26/21 A2996 RMK A01 T02590214  RH  076%=      5-min Rain = 0
KCO2 241832Z 16014KT 26/21 A2996 RMK A01 T02590214  RH  076%=      5-min Rain = 0
KCO2 241833Z 16010KT 26/21 A2995 RMK A01 T02590214  RH  076%=      5-min Rain = 0
KCO2 241834Z 16009G14KT 26/22 A2995 RMK A01 T02600217  RH  077%=      5-min Rain = 0
KCO2 241835Z 16011KT 26/22 A2995 RMK A01 T02610217  RH  077%=      5-min Rain = 0
KCO2 241836Z 15016G21KT 26/22 A2995 RMK A01 T02610216  RH  076%=      5-min Rain = 0
KCO2 241837Z 16015G20KT 26/21 A2995 RMK A01 T02620213  RH  075%=      5-min Rain = 0
KCO2 241838Z 16016KT 26/21 A2995 RMK A01 T02620213  RH  074%=      5-min Rain = 0
KCO2 241839Z 16015KT 26/21 A2995 RMK A01 T02620214  RH  075%=      5-min Rain = 0
KCO2 241840Z 16012KT 26/22 A2995 RMK A01 T02620215  RH  075%=      5-min Rain = 0
KCO2 241841Z 17013KT 26/21 A2995 RMK A01 T02620214  RH  075%=      5-min Rain = 0
KCO2 241842Z 16013KT 26/21 A2995 RMK A01 T02620214  RH  075%=      5-min Rain = 0
KCO2 241843Z 16015KT 26/21 A2995 RMK A01 T02620213  RH  074%=      5-min Rain = 0
KCO2 241844Z 16015KT 26/21 A2995 RMK A01 T02620213  RH  074%=      5-min Rain = 0
KCO2 241845Z 17015KT 26/21 A2995 RMK A01 T02610211  RH  074%=      5-min Rain = 0
KCO2 241846Z 16014KT 26/21 A2995 RMK A01 T02610211  RH  074%=      5-min Rain = 0
KCO2 241847Z 17015KT 26/21 A2995 RMK A01 T02600212  RH  074%=      5-min Rain = 0
KCO2 241848Z 17016KT 26/21 A2995 RMK A01 T02600211  RH  074%=      5-min Rain = 0
KCO2 241849Z 17013KT 26/21 A2995 RMK A01 T02600212  RH  075%=      5-min Rain = 0
KCO2 241850Z 16011KT 26/21 A2995 RMK A01 T02610214  RH  075%=      5-min Rain = 0
KCO2 241851Z 15013KT 26/21 A2995 RMK A01 T02610214  RH  075%=      5-min Rain = 0
KCO2 241852Z 16014KT 26/21 A2995 RMK A01 T02620214  RH  075%=      5-min Rain = 0
KCO2 241853Z 16015KT 26/21 A2995 RMK A01 T02620214  RH  075%=      5-min Rain = 0
KCO2 241854Z 16012KT 26/21 A2995 RMK A01 T02620214  RH  075%=      5-min Rain = 0
KCO2 241855Z 15014KT 26/22 A2995 RMK A01 T02620216  RH  076%=      5-min Rain = 0
KCO2 241856Z 15016KT 26/21 A2995 RMK A01 T02620214  RH  075%=      5-min Rain = 0
KCO2 241857Z 17015KT 26/21 A2995 RMK A01 T02620214  RH  075%=      5-min Rain = 0
KCO2 241858Z 16015KT 26/21 A2995 RMK A01 T02620214  RH  075%=      5-min Rain = 0
KCO2 241859Z 16016KT 26/21 A2995 RMK A01 T02630214  RH  075%=      5-min Rain = 0
KCO2 241900Z 17014KT 26/21 A2995 RMK A01 T02630214  RH  075%=      5-min Rain = 0
KCO2 241901Z 16013KT 26/21 A2995 RMK A01 T02630214  RH  074%=      5-min Rain = 0
KCO2 241902Z 16014KT 26/22 A2995 RMK A01 T02620215  RH  075%=      5-min Rain = 0
KCO2 241903Z 16017KT 26/21 A2995 RMK A01 T02620213  RH  074%=      5-min Rain = 0
KCO2 241904Z 15017KT 26/21 A2995 RMK A01 T02620213  RH  075%=      5-min Rain = 0
KCO2 241905Z 16014KT 26/21 A2995 RMK A01 T02610213  RH  075%=      5-min Rain = 0
KCO2 241906Z 17014KT 26/22 A2994 RMK A01 T02610215  RH  075%=      5-min Rain = 0
KCO2 241907Z 16014KT 26/21 A2994 RMK A01 T02610214  RH  075%=      5-min Rain = 0
KCO2 241908Z 16012KT 26/22 A2994 RMK A01 T02620215  RH  075%=      5-min Rain = 0
KCO2 241909Z 15014KT 26/22 A2994 RMK A01 T02610215  RH  076%=      5-min Rain = 0
KCO2 241910Z 16013KT 26/21 A2994 RMK A01 T02610213  RH  075%=      5-min Rain = 0
KCO2 241911Z 16014KT 26/22 A2994 RMK A01 T02610215  RH  075%=      5-min Rain = 0
KCO2 241912Z 16014KT 26/21 A2994 RMK A01 T02620213  RH  075%=      5-min Rain = 0
KCO2 241913Z 15015KT 26/21 A2994 RMK A01 T02620214  RH  075%=      5-min Rain = 0
KCO2 241914Z 15013KT 27/22 A2994 RMK A01 T02650218  RH  075%=      5-min Rain = 0
KCO2 241915Z 15012G17KT 27/22 A2994 RMK A01 T02700221  RH  075%=      5-min Rain = 0
KCO2 241916Z 16019KT 27/22 A2994 RMK A01 T02740218  RH  071%=      5-min Rain = 0
KCO2 241917Z 16017KT 28/22 A2994 RMK A01 T02750217  RH  071%=      5-min Rain = 0
KCO2 241918Z 15019KT 28/22 A2994 RMK A01 T02760218  RH  071%=      5-min Rain = 0
KCO2 241919Z 15018KT 28/22 A2994 RMK A01 T02760216  RH  070%=      5-min Rain = 0
KCO2 241920Z 15017KT 28/22 A2994 RMK A01 T02770219  RH  071%=      5-min Rain = 0
KCO2 241921Z 15018KT 28/22 A2994 RMK A01 T02760217  RH  070%=      5-min Rain = 0
KCO2 241922Z 15016G21KT 28/22 A2994 RMK A01 T02760218  RH  071%=      5-min Rain = 0
KCO2 241923Z 16018KT 28/22 A2994 RMK A01 T02760217  RH  070%=      5-min Rain = 0
KCO2 241924Z 15016G21KT 27/22 A2994 RMK A01 T02740216  RH  071%=      5-min Rain = 0
KCO2 241925Z 15015KT 28/22 A2994 RMK A01 T02750219  RH  072%=      5-min Rain = 0
KCO2 241926Z 15016KT 28/22 A2994 RMK A01 T02760216  RH  070%=      5-min Rain = 0
KCO2 241927Z 15018G25KT 28/22 A2994 RMK A01 T02750216  RH  070%=      5-min Rain = 0
KCO2 241928Z 16019KT 27/21 A2994 RMK A01 T02740214  RH  070%=      5-min Rain = 0
KCO2 241929Z 16016KT 27/22 A2994 RMK A01 T02720216  RH  071%=      5-min Rain = 0
KCO2 241930Z 16020KT 27/21 A2994 RMK A01 T02720214  RH  071%=      5-min Rain = 0
KCO2 241931Z 16017KT 27/22 A2994 RMK A01 T02720216  RH  071%=      5-min Rain = 0
KCO2 241932Z 15017G23KT 27/22 A2994 RMK A01 T02740219  RH  072%=      5-min Rain = 0
KCO2 241933Z 15018KT 28/22 A2994 RMK A01 T02760217  RH  070%=      5-min Rain = 0
KCO2 241934Z 15018KT 28/22 A2994 RMK A01 T02760217  RH  070%=      5-min Rain = 0
KCO2 241935Z 16016G21KT 27/22 A2994 RMK A01 T02740216  RH  071%=      5-min Rain = 0
KCO2 241936Z 16019KT 27/22 A2994 RMK A01 T02720215  RH  071%=      5-min Rain = 0
KCO2 241937Z 15019KT 27/21 A2994 RMK A01 T02690214  RH  072%=      5-min Rain = 0
KCO2 241938Z 15019KT 27/21 A2994 RMK A01 T02680213  RH  072%=      5-min Rain = 0
KCO2 241939Z 15021KT 27/21 A2994 RMK A01 T02680213  RH  072%=      5-min Rain = 0
KCO2 241940Z 15018KT 27/21 A2994 RMK A01 T02690213  RH  072%=      5-min Rain = 0
KCO2 241941Z 15015KT 27/22 A2994 RMK A01 T02710217  RH  072%=      5-min Rain = 0
KCO2 241942Z 16012KT 28/22 A2994 RMK A01 T02750220  RH  072%=      5-min Rain = 0
KCO2 241943Z 16020G26KT 28/22 A2994 RMK A01 T02780218  RH  070%=      5-min Rain = 0
KCO2 241944Z 16017G23KT 28/22 A2994 RMK A01 T02770215  RH  069%=      5-min Rain = 0
KCO2 241945Z 15015KT 28/22 A2994 RMK A01 T02750216  RH  070%=      5-min Rain = 0
KCO2 241946Z 16017G22KT 28/22 A2994 RMK A01 T02750218  RH  071%=      5-min Rain = 0
KCO2 241947Z 15019KT 28/21 A2994 RMK A01 T02750214  RH  069%=      5-min Rain = 0
KCO2 241948Z 15019KT 27/21 A2994 RMK A01 T02730213  RH  070%=      5-min Rain = 0
KCO2 241949Z 15020KT 27/21 A2993 RMK A01 T02710213  RH  070%=      5-min Rain = 0
KCO2 241950Z 16018KT 27/21 A2994 RMK A01 T02700213  RH  071%=      5-min Rain = 0
KCO2 241951Z 15018KT 27/21 A2993 RMK A01 T02690213  RH  072%=      5-min Rain = 0
KCO2 241952Z 16015G20KT 27/22 A2993 RMK A01 T02690215  RH  072%=      5-min Rain = 0
KCO2 241953Z 16018KT 27/21 A2994 RMK A01 T02700214  RH  072%=      5-min Rain = 0
KCO2 241954Z 16019KT 27/21 A2994 RMK A01 T02690214  RH  071%=      5-min Rain = 0
KCO2 241955Z 15019KT 27/21 A2994 RMK A01 T02670211  RH  071%=      5-min Rain = 0
KCO2 241956Z 15015KT 27/21 A2994 RMK A01 T02650213  RH  073%=      5-min Rain = 0
KCO2 241957Z 15018KT 26/21 A2994 RMK A01 T02640212  RH  073%=      5-min Rain = 0
KCO2 241958Z 16015KT 26/21 A2993 RMK A01 T02620211  RH  073%=      5-min Rain = 0
KCO2 241959Z 15014KT 26/21 A2993 RMK A01 T02620212  RH  074%=      5-min Rain = 0
KCO2 242000Z 15015KT 26/21 A2993 RMK A01 T02620212  RH  074%=      5-min Rain = 0
KCO2 242001Z 15015KT 26/21 A2994 RMK A01 T02620211  RH  074%=      5-min Rain = 0
KCO2 242002Z 16016KT 26/21 A2994 RMK A01 T02610211  RH  074%=      5-min Rain = 0
KCO2 242003Z 15013G18KT 26/21 A2994 RMK A01 T02610213  RH  075%=      5-min Rain = 0
KCO2 242004Z 16017KT 26/21 A2994 RMK A01 T02600211  RH  074%=      5-min Rain = 0
KCO2 242005Z 16015KT 26/21 A2994 RMK A01 T02600211  RH  074%=      5-min Rain = 0
KCO2 242006Z 16014KT 26/21 A2993 RMK A01 T02590211  RH  075%=      5-min Rain = 0
KCO2 242007Z 16015KT 26/21 A2993 RMK A01 T02590211  RH  075%=      5-min Rain = 0
KCO2 242008Z 16016KT 26/21 A2994 RMK A01 T02580211  RH  075%=      5-min Rain = 0
KCO2 242009Z 16016KT 26/21 A2993 RMK A01 T02570211  RH  076%=      5-min Rain = 0
KCO2 242010Z 16014KT 26/21 A2993 RMK A01 T02570211  RH  076%=      5-min Rain = 0
KCO2 242011Z 16015KT 26/21 A2993 RMK A01 T02570212  RH  076%=      5-min Rain = 0
KCO2 242012Z 15011KT 26/21 A2993 RMK A01 T02560211  RH  076%=      5-min Rain = 0
KCO2 242013Z 16013KT 26/21 A2993 RMK A01 T02580212  RH  076%=      5-min Rain = 0
KCO2 242014Z 16016KT 26/21 A2993 RMK A01 T02580211  RH  075%=      5-min Rain = 0
KCO2 242015Z 15016KT 26/21 A2993 RMK A01 T02600211  RH  075%=      5-min Rain = 0
KCO2 242016Z 16016KT 26/21 A2993 RMK A01 T02600210  RH  074%=      5-min Rain = 0
KCO2 242017Z 15017KT 26/21 A2993 RMK A01 T02620211  RH  073%=      5-min Rain = 0
KCO2 242018Z 16016KT 26/21 A2993 RMK A01 T02630212  RH  073%=      5-min Rain = 0
KCO2 242019Z 17013KT 27/21 A2993 RMK A01 T02650213  RH  073%=      5-min Rain = 0
KCO2 242020Z 17015KT 27/21 A2993 RMK A01 T02660214  RH  073%=      5-min Rain = 0
KCO2 242021Z 16013KT 27/21 A2993 RMK A01 T02670213  RH  072%=      5-min Rain = 0
KCO2 242022Z 16016KT 27/21 A2993 RMK A01 T02680214  RH  072%=      5-min Rain = 0
KCO2 242023Z 16015KT 27/21 A2993 RMK A01 T02690213  RH  072%=      5-min Rain = 0
KCO2 242024Z 16015G20KT 27/22 A2993 RMK A01 T02680215  RH  072%=      5-min Rain = 0
KCO2 242025Z 16016KT 27/21 A2992 RMK A01 T02690214  RH  072%=      5-min Rain = 0
KCO2 242026Z 17013G18KT 27/21 A2993 RMK A01 T02680214  RH  072%=      5-min Rain = 0
KCO2 242027Z 17016KT 27/21 A2993 RMK A01 T02680214  RH  073%=      5-min Rain = 0
KCO2 242028Z 17016KT 27/21 A2993 RMK A01 T02670213  RH  072%=      5-min Rain = 0
KCO2 242029Z 17015KT 27/21 A2993 RMK A01 T02670214  RH  072%=      5-min Rain = 0
KCO2 242030Z 16018KT 27/21 A2993 RMK A01 T02670213  RH  072%=      5-min Rain = 0
KCO2 242031Z 16014G19KT 27/21 A2993 RMK A01 T02670212  RH  072%=      5-min Rain = 0
KCO2 242032Z 16014KT 27/21 A2992 RMK A01 T02680214  RH  072%=      5-min Rain = 0
KCO2 242033Z 16015KT 27/21 A2992 RMK A01 T02680214  RH  072%=      5-min Rain = 0
KCO2 242034Z 16014G19KT 27/21 A2992 RMK A01 T02680214  RH  072%=      5-min Rain = 0
KCO2 242035Z 15013G19KT 27/22 A2993 RMK A01 T02680216  RH  073%=      5-min Rain = 0
KCO2 242036Z 16016KT 27/21 A2993 RMK A01 T02680213  RH  072%=      5-min Rain = 0
KCO2 242037Z 15014KT 27/21 A2993 RMK A01 T02660213  RH  073%=      5-min Rain = 0
KCO2 242038Z 15016KT 27/21 A2993 RMK A01 T02650213  RH  073%=      5-min Rain = 0
KCO2 242039Z 15012KT 27/21 A2993 RMK A01 T02650213  RH  073%=      5-min Rain = 0
KCO2 242040Z 16014G19KT 27/21 A2993 RMK A01 T02650213  RH  073%=      5-min Rain = 0
KCO2 242041Z 15017KT 27/21 A2993 RMK A01 T02650211  RH  073%=      5-min Rain = 0
KCO2 242042Z 15017G23KT 27/21 A2993 RMK A01 T02650211  RH  072%=      5-min Rain = 0
KCO2 242043Z 16018KT 27/21 A2992 RMK A01 T02650210  RH  072%=      5-min Rain = 0
KCO2 242044Z 15015KT 27/21 A2992 RMK A01 T02650210  RH  072%=      5-min Rain = 0
KCO2 242045Z 15017G22KT 27/21 A2992 RMK A01 T02660210  RH  071%=      5-min Rain = 0
KCO2 242046Z 16019KT 27/21 A2992 RMK A01 T02660210  RH  071%=      5-min Rain = 0
KCO2 242047Z 16017KT 27/21 A2992 RMK A01 T02650210  RH  072%=      5-min Rain = 0
KCO2 242048Z 15014KT 26/21 A2992 RMK A01 T02640211  RH  073%=      5-min Rain = 0
KCO2 242049Z 16013KT 27/21 A2992 RMK A01 T02650213  RH  073%=      5-min Rain = 0
KCO2 242050Z 16018KT 27/21 A2992 RMK A01 T02660212  RH  073%=      5-min Rain = 0
KCO2 242051Z 16017G22KT 27/21 A2992 RMK A01 T02650209  RH  071%=      5-min Rain = 0
KCO2 242052Z 16015KT 27/21 A2992 RMK A01 T02650211  RH  072%=      5-min Rain = 0
KCO2 242053Z 16012KT 27/21 A2992 RMK A01 T02660212  RH  073%=      5-min Rain = 0
KCO2 242054Z 15017KT 27/21 A2992 RMK A01 T02670213  RH  072%=      5-min Rain = 0
KCO2 242055Z 16016KT 27/21 A2992 RMK A01 T02680211  RH  071%=      5-min Rain = 0
KCO2 242056Z 16015KT 27/21 A2992 RMK A01 T02670210  RH  071%=      5-min Rain = 0
KCO2 242057Z 16015KT 27/21 A2992 RMK A01 T02670211  RH  072%=      5-min Rain = 0
KCO2 242058Z 15016KT 27/21 A2992 RMK A01 T02660212  RH  072%=      5-min Rain = 0
KCO2 242059Z 15018KT 27/21 A2992 RMK A01 T02660211  RH  071%=      5-min Rain = 0
KCO2 242100Z 15016G22KT 27/21 A2991 RMK A01 T02660210  RH  071%=      5-min Rain = 0
KCO2 242101Z 15014G21KT 27/21 A2991 RMK A01 T02660212  RH  072%=      5-min Rain = 0
KCO2 242102Z 15019KT 27/21 A2991 RMK A01 T02650209  RH  071%=      5-min Rain = 0
KCO2 242103Z 16017KT 27/21 A2991 RMK A01 T02650209  RH  072%=      5-min Rain = 0
KCO2 242104Z 15014KT 26/21 A2991 RMK A01 T02640210  RH  072%=      5-min Rain = 0
KCO2 242105Z 16014KT 26/21 A2991 RMK A01 T02640211  RH  073%=      5-min Rain = 0
KCO2 242106Z 15017KT 26/21 A2991 RMK A01 T02640210  RH  072%=      5-min Rain = 0
KCO2 242107Z 16019G24KT 26/21 A2991 RMK A01 T02640208  RH  071%=      5-min Rain = 0
KCO2 242108Z 16017KT 26/21 A2991 RMK A01 T02640209  RH  072%=      5-min Rain = 0
KCO2 242109Z 16016KT 26/21 A2991 RMK A01 T02640210  RH  072%=      5-min Rain = 0
KCO2 242110Z 15015KT 26/21 A2991 RMK A01 T02640209  RH  072%=      5-min Rain = 0
KCO2 242111Z 15016KT 26/21 A2991 RMK A01 T02640211  RH  072%=      5-min Rain = 0
KCO2 242112Z 15019KT 27/21 A299 RMK A01 T02650209  RH  072%=      5-min Rain = 0
KCO2 242113Z 16018KT 26/21 A2991 RMK A01 T02640209  RH  072%=      5-min Rain = 0
KCO2 242114Z 15017G22KT 27/21 A299 RMK A01 T02650210  RH  072%=      5-min Rain = 0
KCO2 242115Z 16018KT 27/21 A299 RMK A01 T02650209  RH  071%=      5-min Rain = 0
KCO2 242116Z 15018G24KT 27/21 A299 RMK A01 T02650209  RH  072%=      5-min Rain = 0
KCO2 242117Z 16021KT 27/21 A299 RMK A01 T02650207  RH  071%=      5-min Rain = 0
KCO2 242118Z 16023KT 27/21 A299 RMK A01 T02650208  RH  071%=      5-min Rain = 0
KCO2 242119Z 16017KT 26/21 A299 RMK A01 T02640208  RH  071%=      5-min Rain = 0
KCO2 242120Z 16017KT 26/21 A299 RMK A01 T02640208  RH  071%=      5-min Rain = 0
KCO2 242121Z 16019KT 26/21 A299 RMK A01 T02640208  RH  071%=      5-min Rain = 0
KCO2 242122Z 16015G21KT 26/21 A299 RMK A01 T02640207  RH  071%=      5-min Rain = 0
KCO2 242123Z 15016G22KT 27/21 A299 RMK A01 T02650208  RH  071%=      5-min Rain = 0
KCO2 242124Z 15016KT 27/21 A299 RMK A01 T02650207  RH  071%=      5-min Rain = 0
KCO2 242125Z 15017G22KT 27/21 A299 RMK A01 T02650208  RH  071%=      5-min Rain = 0
KCO2 242126Z 15018KT 27/21 A299 RMK A01 T02650207  RH  071%=      5-min Rain = 0
KCO2 242127Z 16015KT 26/21 A299 RMK A01 T02640208  RH  071%=      5-min Rain = 0
KCO2 242128Z 15015G21KT 27/21 A299 RMK A01 T02650208  RH  071%=      5-min Rain = 0
KCO2 242129Z 15015KT 27/21 A299 RMK A01 T02650208  RH  071%=      5-min Rain = 0
KCO2 242130Z 15017G23KT 27/21 A299 RMK A01 T02650208  RH  071%=      5-min Rain = 0
KCO2 242131Z 15019KT 27/21 A2989 RMK A01 T02650207  RH  070%=      5-min Rain = 0
KCO2 242132Z 15020KT 27/21 A2989 RMK A01 T02650206  RH  070%=      5-min Rain = 0
KCO2 242133Z 16017KT 26/21 A2989 RMK A01 T02640206  RH  070%=      5-min Rain = 0
KCO2 242134Z 16014G19KT 26/21 A299 RMK A01 T02640208  RH  071%=      5-min Rain = 0
KCO2 242135Z 15016G21KT 26/21 A299 RMK A01 T02640208  RH  071%=      5-min Rain = 0
KCO2 242136Z 15019G25KT 26/21 A299 RMK A01 T02640205  RH  070%=      5-min Rain = 0
KCO2 242137Z 16016G22KT 26/21 A299 RMK A01 T02640206  RH  070%=      5-min Rain = 0
KCO2 242138Z 16016KT 26/21 A299 RMK A01 T02640207  RH  071%=      5-min Rain = 0
KCO2 242139Z 15017KT 26/21 A299 RMK A01 T02640207  RH  071%=      5-min Rain = 0
KCO2 242140Z 15017KT 26/21 A299 RMK A01 T02630206  RH  071%=      5-min Rain = 0
KCO2 242141Z 16015G20KT 26/21 A299 RMK A01 T02630206  RH  071%=      5-min Rain = 0
KCO2 242142Z 16014G19KT 26/21 A299 RMK A01 T02630207  RH  071%=      5-min Rain = 0
KCO2 242143Z 16011KT 26/21 A299 RMK A01 T02630208  RH  072%=      5-min Rain = 0
KCO2 242144Z 16013KT 26/21 A299 RMK A01 T02630209  RH  072%=      5-min Rain = 0
KCO2 242145Z 16013KT 26/21 A299 RMK A01 T02630208  RH  071%=      5-min Rain = 0
KCO2 242146Z 16015KT 26/21 A299 RMK A01 T02640207  RH  071%=      5-min Rain = 0
KCO2 242147Z 16017KT 26/21 A299 RMK A01 T02630206  RH  071%=      5-min Rain = 0
KCO2 242148Z 17014KT 26/21 A299 RMK A01 T02630206  RH  071%=      5-min Rain = 0
KCO2 242149Z 16014G20KT 26/21 A299 RMK A01 T02630208  RH  071%=      5-min Rain = 0
KCO2 242150Z 16017G22KT 26/21 A299 RMK A01 T02640206  RH  071%=      5-min Rain = 0
KCO2 242151Z 17016KT 26/21 A299 RMK A01 T02630205  RH  071%=      5-min Rain = 0
KCO2 242152Z 17015KT 26/21 A299 RMK A01 T02630206  RH  071%=      5-min Rain = 0
KCO2 242153Z 17014KT 26/21 A299 RMK A01 T02630207  RH  071%=      5-min Rain = 0
KCO2 242154Z 17013KT 26/21 A299 RMK A01 T02630207  RH  071%=      5-min Rain = 0
KCO2 242155Z 16010KT 26/21 A299 RMK A01 T02630209  RH  072%=      5-min Rain = 0
KCO2 242156Z 16011KT 26/21 A299 RMK A01 T02630210  RH  072%=      5-min Rain = 0
KCO2 242157Z 16011G16KT 26/21 A299 RMK A01 T02630210  RH  072%=      5-min Rain = 0
KCO2 242158Z 16014KT 26/21 A2989 RMK A01 T02630208  RH  072%=      5-min Rain = 0
KCO2 242159Z 16013KT 26/21 A2989 RMK A01 T02640208  RH  071%=      5-min Rain = 0
KCO2 242200Z 15013KT 26/21 A2989 RMK A01 T02640207  RH  071%=      5-min Rain = 0
KCO2 242201Z 16015KT 26/21 A2989 RMK A01 T02640207  RH  071%=      5-min Rain = 0
KCO2 242202Z 15015KT 26/21 A2989 RMK A01 T02640207  RH  071%=      5-min Rain = 0
KCO2 242203Z 16014KT 26/21 A2989 RMK A01 T02630207  RH  071%=      5-min Rain = 0
KCO2 242204Z 15013KT 26/21 A2989 RMK A01 T02630207  RH  072%=      5-min Rain = 0
KCO2 242205Z 16015KT 26/21 A2989 RMK A01 T02630208  RH  072%=      5-min Rain = 0
KCO2 242206Z 15016KT 26/21 A2989 RMK A01 T02630207  RH  071%=      5-min Rain = 0
KCO2 242207Z 16015G20KT 26/21 A2989 RMK A01 T02620207  RH  072%=      5-min Rain = 0
KCO2 242208Z 16015KT 26/21 A2989 RMK A01 T02620208  RH  072%=      5-min Rain = 0
KCO2 242209Z 15016KT 26/21 A2989 RMK A01 T02610207  RH  072%=      5-min Rain = 0
KCO2 242210Z 16015KT 26/21 A2989 RMK A01 T02610207  RH  072%=      5-min Rain = 0
KCO2 242211Z 16015KT 26/21 A2989 RMK A01 T02610207  RH  072%=      5-min Rain = 0
KCO2 242212Z 15017KT 26/21 A2989 RMK A01 T02610207  RH  072%=      5-min Rain = 0
KCO2 242213Z 16016KT 26/21 A2989 RMK A01 T02610206  RH  072%=      5-min Rain = 0
KCO2 242214Z 16014KT 26/21 A2989 RMK A01 T02600206  RH  072%=      5-min Rain = 0
KCO2 242215Z 15016KT 26/21 A2989 RMK A01 T02610208  RH  073%=      5-min Rain = 0
KCO2 242216Z 16015KT 26/21 A2989 RMK A01 T02600207  RH  072%=      5-min Rain = 0
KCO2 242217Z 16014KT 26/21 A2989 RMK A01 T02600207  RH  073%=      5-min Rain = 0
KCO2 242218Z 16012G18KT 26/21 A2989 RMK A01 T02600207  RH  073%=      5-min Rain = 0
KCO2 242219Z 15015KT 26/21 A2989 RMK A01 T02590207  RH  073%=      5-min Rain = 0
KCO2 242220Z 16014KT 26/21 A2989 RMK A01 T02590207  RH  073%=      5-min Rain = 0
KCO2 242221Z 16011KT 26/21 A2989 RMK A01 T02590207  RH  073%=      5-min Rain = 0
KCO2 242222Z 16013KT 26/21 A2989 RMK A01 T02590208  RH  074%=      5-min Rain = 0
KCO2 242223Z 15013KT 26/21 A2989 RMK A01 T02590208  RH  073%=      5-min Rain = 0
KCO2 242224Z 15016KT 26/21 A2989 RMK A01 T02590206  RH  073%=      5-min Rain = 0
KCO2 242225Z 16014KT 26/21 A2989 RMK A01 T02580206  RH  073%=      5-min Rain = 0
KCO2 242226Z 16013KT 26/21 A2989 RMK A01 T02590206  RH  073%=      5-min Rain = 0
KCO2 242227Z 15014KT 26/21 A2989 RMK A01 T02590207  RH  073%=      5-min Rain = 0
KCO2 242228Z 17015KT 26/21 A2989 RMK A01 T02590206  RH  073%=      5-min Rain = 0
KCO2 242229Z 15013KT 26/21 A2989 RMK A01 T02590206  RH  073%=      5-min Rain = 0
KCO2 242230Z 16013G18KT 26/21 A2989 RMK A01 T02590207  RH  073%=      5-min Rain = 0
KCO2 242231Z 16015KT 26/21 A2988 RMK A01 T02590206  RH  073%=      5-min Rain = 0
KCO2 242232Z 16013KT 26/21 A2988 RMK A01 T02590206  RH  073%=      5-min Rain = 0
KCO2 242233Z 16013KT 26/21 A2988 RMK A01 T02590206  RH  073%=      5-min Rain = 0
KCO2 242234Z 16012KT 26/21 A2988 RMK A01 T02580207  RH  073%=      5-min Rain = 0
KCO2 242235Z 16013KT 26/21 A2988 RMK A01 T02580205  RH  073%=      5-min Rain = 0
KCO2 242236Z 15013KT 26/21 A2988 RMK A01 T02580205  RH  072%=      5-min Rain = 0
KCO2 242237Z 16012KT 26/21 A2988 RMK A01 T02580205  RH  072%=      5-min Rain = 0
KCO2 242238Z 15010KT 26/21 A2988 RMK A01 T02580206  RH  073%=      5-min Rain = 0
KCO2 242239Z 17011KT 26/21 A2988 RMK A01 T02580207  RH  073%=      5-min Rain = 0
KCO2 242240Z 16011KT 26/21 A2989 RMK A01 T02580207  RH  073%=      5-min Rain = 0
KCO2 242241Z 16008KT 26/21 A2989 RMK A01 T02580208  RH  074%=      5-min Rain = 0
KCO2 242242Z 15009KT 26/21 A2989 RMK A01 T02580208  RH  074%=      5-min Rain = 0
KCO2 242243Z 16010KT 26/21 A2989 RMK A01 T02580207  RH  074%=      5-min Rain = 0
KCO2 242244Z 15011KT 26/21 A2989 RMK A01 T02580207  RH  074%=      5-min Rain = 0
KCO2 242245Z 16011KT 26/21 A2989 RMK A01 T02580206  RH  073%=      5-min Rain = 0
KCO2 242246Z 15010KT 26/21 A2989 RMK A01 T02580207  RH  073%=      5-min Rain = 0
KCO2 242247Z 15009KT 26/21 A2989 RMK A01 T02580209  RH  074%=      5-min Rain = 0
KCO2 242248Z 15012KT 26/21 A2988 RMK A01 T02580208  RH  074%=      5-min Rain = 0
KCO2 242249Z 14011KT 26/21 A2988 RMK A01 T02580206  RH  073%=      5-min Rain = 0
KCO2 242250Z 15011KT 26/21 A2988 RMK A01 T02580207  RH  074%=      5-min Rain = 0
KCO2 242251Z 14010KT 26/21 A2988 RMK A01 T02580207  RH  074%=      5-min Rain = 0
KCO2 242252Z 15008KT 26/21 A2988 RMK A01 T02580208  RH  074%=      5-min Rain = 0
KCO2 242253Z 15008KT 26/21 A2988 RMK A01 T02580209  RH  074%=      5-min Rain = 0
KCO2 242254Z 16007KT 26/21 A2988 RMK A01 T02580207  RH  074%=      5-min Rain = 0
KCO2 242255Z 15009KT 26/21 A2989 RMK A01 T02580208  RH  074%=      5-min Rain = 0
KCO2 242256Z 15007KT 26/21 A2989 RMK A01 T02570205  RH  073%=      5-min Rain = 0
KCO2 242257Z 16006KT 26/21 A2989 RMK A01 T02570207  RH  074%=      5-min Rain = 0
KCO2 242258Z 16008KT 26/21 A2989 RMK A01 T02570207  RH  074%=      5-min Rain = 0
KCO2 242259Z 15010KT 26/21 A2988 RMK A01 T02570206  RH  073%=      5-min Rain = 0
KCO2 242300Z 14011KT 26/20 A2988 RMK A01 T02570204  RH  072%=      5-min Rain = 0
KCO2 242301Z 16008KT 26/21 A2988 RMK A01 T02570205  RH  073%=      5-min Rain = 0
KCO2 242302Z 16011KT 26/21 A2988 RMK A01 T02570205  RH  073%=      5-min Rain = 0
KCO2 242303Z 16009KT 26/21 A2988 RMK A01 T02570205  RH  073%=      5-min Rain = 0
KCO2 242304Z 16008KT 26/21 A2988 RMK A01 T02570205  RH  073%=      5-min Rain = 0
KCO2 242305Z 15007KT 26/21 A2988 RMK A01 T02570205  RH  073%=      5-min Rain = 0
KCO2 242306Z 15007KT 26/21 A2989 RMK A01 T02570205  RH  073%=      5-min Rain = 0
KCO2 242307Z 15008KT 26/21 A2989 RMK A01 T02570206  RH  073%=      5-min Rain = 0
KCO2 242308Z 16007KT 26/21 A2989 RMK A01 T02570206  RH  073%=      5-min Rain = 0
KCO2 242309Z 16011KT 26/21 A2989 RMK A01 T02570206  RH  073%=      5-min Rain = 0
KCO2 242310Z 16010KT 26/21 A299 RMK A01 T02570205  RH  073%=      5-min Rain = 0
KCO2 242311Z 16008G13KT 26/21 A299 RMK A01 T02570205  RH  073%=      5-min Rain = 0
KCO2 242312Z 17012KT 26/20 A2989 RMK A01 T02570204  RH  073%=      5-min Rain = 0
KCO2 242313Z 16009KT 26/20 A2989 RMK A01 T02570203  RH  072%=      5-min Rain = 0
KCO2 242314Z 15009KT 26/21 A2989 RMK A01 T02580205  RH  073%=      5-min Rain = 0
KCO2 242315Z 16015KT 26/20 A2989 RMK A01 T02570204  RH  072%=      5-min Rain = 0
KCO2 242316Z 17010KT 26/20 A2989 RMK A01 T02580202  RH  071%=      5-min Rain = 0
KCO2 242317Z 15010KT 26/20 A2989 RMK A01 T02580204  RH  072%=      5-min Rain = 0
KCO2 242318Z 15009KT 26/21 A2989 RMK A01 T02570206  RH  073%=      5-min Rain = 0
KCO2 242319Z 16009KT 26/21 A2989 RMK A01 T02580207  RH  074%=      5-min Rain = 0
KCO2 242320Z 16009KT 26/21 A2989 RMK A01 T02570206  RH  073%=      5-min Rain = 0
KCO2 242321Z 16010KT 26/21 A2989 RMK A01 T02570207  RH  074%=      5-min Rain = 0
KCO2 242322Z 16014KT 26/21 A2989 RMK A01 T02570205  RH  073%=      5-min Rain = 0
KCO2 242323Z 16012KT 26/20 A2989 RMK A01 T02570204  RH  072%=      5-min Rain = 0
KCO2 242324Z 16013KT 26/20 A2988 RMK A01 T02570204  RH  073%=      5-min Rain = 0
KCO2 242325Z 15012KT 26/21 A2988 RMK A01 T02570205  RH  073%=      5-min Rain = 0
KCO2 242326Z 14014KT 26/20 A2987 RMK A01 T02570204  RH  073%=      5-min Rain = 0
KCO2 242327Z 15013KT 26/20 A2987 RMK A01 T02570204  RH  073%=      5-min Rain = 0
KCO2 242328Z 15012KT 26/20 A2987 RMK A01 T02570204  RH  072%=      5-min Rain = 0
KCO2 242329Z 15012KT 26/20 A2987 RMK A01 T02560204  RH  073%=      5-min Rain = 0
KCO2 242330Z 16011KT 26/20 A2988 RMK A01 T02560204  RH  073%=      5-min Rain = 0
KCO2 242331Z 16012KT 26/20 A2988 RMK A01 T02570204  RH  073%=      5-min Rain = 0
KCO2 242332Z 16010G15KT 26/20 A2988 RMK A01 T02560204  RH  073%=      5-min Rain = 0
KCO2 242333Z 16012KT 26/20 A2989 RMK A01 T02560204  RH  073%=      5-min Rain = 0
KCO2 242334Z 16012KT 26/21 A2989 RMK A01 T02560205  RH  073%=      5-min Rain = 0
KCO2 242335Z 16012KT 26/20 A2989 RMK A01 T02560204  RH  073%=      5-min Rain = 0
KCO2 242336Z 16012KT 26/20 A2989 RMK A01 T02570204  RH  073%=      5-min Rain = 0
KCO2 242337Z 16012KT 26/20 A2989 RMK A01 T02560203  RH  072%=      5-min Rain = 0
KCO2 242338Z 16011KT 26/20 A2989 RMK A01 T02560203  RH  072%=      5-min Rain = 0
KCO2 242339Z 16011KT 26/20 A2989 RMK A01 T02570203  RH  072%=      5-min Rain = 0
KCO2 242340Z 16013KT 26/20 A2988 RMK A01 T02560202  RH  072%=      5-min Rain = 0
KCO2 242341Z 16012KT 26/20 A2988 RMK A01 T02570200  RH  071%=      5-min Rain = 0
KCO2 242342Z 15011KT 26/20 A2988 RMK A01 T02570199  RH  071%=      5-min Rain = 0
KCO2 242343Z 15015KT 26/20 A2988 RMK A01 T02570199  RH  070%=      5-min Rain = 0
KCO2 242344Z 16012KT 26/20 A2988 RMK A01 T02570199  RH  070%=      5-min Rain = 0
KCO2 242345Z 16011KT 26/20 A2988 RMK A01 T02570199  RH  070%=      5-min Rain = 0
KCO2 242346Z 16011KT 26/20 A2988 RMK A01 T02570200  RH  071%=      5-min Rain = 0
KCO2 242347Z 16010KT 26/20 A2988 RMK A01 T02570200  RH  071%=      5-min Rain = 0
KCO2 242348Z 15010KT 26/20 A2988 RMK A01 T02560200  RH  071%=      5-min Rain = 0
KCO2 242349Z 16012KT 26/20 A2988 RMK A01 T02560200  RH  071%=      5-min Rain = 0
KCO2 242350Z 17012KT 26/20 A2989 RMK A01 T02560199  RH  071%=      5-min Rain = 0
KCO2 242351Z 17012KT 26/20 A2989 RMK A01 T02560198  RH  070%=      5-min Rain = 0
KCO2 242352Z 17010KT 26/20 A2989 RMK A01 T02560197  RH  070%=      5-min Rain = 0
KCO2 242353Z 17012KT 26/20 A2989 RMK A01 T02560197  RH  070%=      5-min Rain = 0
KCO2 242354Z 17011KT 26/20 A2989 RMK A01 T02560197  RH  070%=      5-min Rain = 0
KCO2 242355Z 17009KT 26/20 A2989 RMK A01 T02560198  RH  070%=      5-min Rain = 0
KCO2 242356Z 16009KT 26/20 A2988 RMK A01 T02560199  RH  071%=      5-min Rain = 0
KCO2 242357Z 16009KT 26/20 A2988 RMK A01 T02560198  RH  070%=      5-min Rain = 0
KCO2 242358Z 15008KT 26/20 A2988 RMK A01 T02560198  RH  070%=      5-min Rain = 0
KCO2 242359Z 15007KT 26/20 A2988 RMK A01 T02560199  RH  071%=      5-min Rain = 0
KCO2 250000Z 15011KT 26/20 A2988 RMK A01 T02550199  RH  071%=      5-min Rain = 0
KCO2 250001Z 16009KT 26/20 A2988 RMK A01 T02550197  RH  070%=      5-min Rain = 0
KCO2 250002Z 15008KT 26/20 A2988 RMK A01 T02550197  RH  070%=      5-min Rain = 0
KCO2 250003Z 15009KT 26/20 A2988 RMK A01 T02550197  RH  070%=      5-min Rain = 0
KCO2 250004Z 15008KT 26/20 A2988 RMK A01 T02550198  RH  070%=      5-min Rain = 0
KCO2 250005Z 15011KT 26/20 A2988 RMK A01 T02550198  RH  071%=      5-min Rain = 0
KCO2 250006Z 16011KT 26/20 A2988 RMK A01 T02550196  RH  070%=      5-min Rain = 0
KCO2 250007Z 16009KT 26/20 A2989 RMK A01 T02550196  RH  070%=      5-min Rain = 0
KCO2 250008Z 16010KT 26/20 A2989 RMK A01 T02550196  RH  070%=      5-min Rain = 0
KCO2 250009Z 16010KT 26/20 A2989 RMK A01 T02550196  RH  070%=      5-min Rain = 0
KCO2 250010Z 16007KT 26/20 A2989 RMK A01 T02550197  RH  070%=      5-min Rain = 0
KCO2 250011Z 16006KT 26/20 A2989 RMK A01 T02550198  RH  071%=      5-min Rain = 0
KCO2 250012Z 17006KT 26/20 A2989 RMK A01 T02550199  RH  071%=      5-min Rain = 0
KCO2 250013Z 18007KT 25/20 A299 RMK A01 T02540199  RH  071%=      5-min Rain = 0
KCO2 250014Z 17011KT 25/20 A299 RMK A01 T02540198  RH  071%=      5-min Rain = 0
KCO2 250015Z 17008KT 25/20 A299 RMK A01 T02540197  RH  071%=      5-min Rain = 0
KCO2 250016Z 18008KT 25/20 A2991 RMK A01 T02540198  RH  071%=      5-min Rain = 0
KCO2 250017Z 18009KT 25/20 A299 RMK A01 T02530198  RH  072%=      5-min Rain = 0
KCO2 250018Z 17009KT 25/20 A299 RMK A01 T02530198  RH  072%=      5-min Rain = 0
KCO2 250019Z 17008KT 25/20 A299 RMK A01 T02530198  RH  072%=      5-min Rain = 0
KCO2 250020Z 17009KT 25/20 A299 RMK A01 T02520198  RH  072%=      5-min Rain = 0
KCO2 250021Z 17010KT 25/20 A299 RMK A01 T02530197  RH  071%=      5-min Rain = 0
KCO2 250022Z 17010KT 25/20 A299 RMK A01 T02530196  RH  071%=      5-min Rain = 0
KCO2 250023Z 17007KT 25/20 A299 RMK A01 T02530197  RH  071%=      5-min Rain = 0
KCO2 250024Z 18010KT 25/20 A299 RMK A01 T02530197  RH  071%=      5-min Rain = 0
KCO2 250025Z 18012KT 25/20 A299 RMK A01 T02530196  RH  071%=      5-min Rain = 0
KCO2 250026Z 17011KT 25/19 A299 RMK A01 T02530194  RH  070%=      5-min Rain = 0
KCO2 250027Z 17010KT 25/19 A299 RMK A01 T02540194  RH  070%=      5-min Rain = 0
KCO2 250028Z 17012KT 25/19 A299 RMK A01 T02540194  RH  070%=      5-min Rain = 0
KCO2 250029Z 17011KT 25/19 A299 RMK A01 T02540194  RH  070%=      5-min Rain = 0
KCO2 250030Z 17012KT 25/19 A299 RMK A01 T02540194  RH  069%=      5-min Rain = 0
KCO2 250031Z 16011KT 25/19 A2989 RMK A01 T02540193  RH  069%=      5-min Rain = 0
KCO2 250032Z 16007KT 25/19 A2989 RMK A01 T02540193  RH  069%=      5-min Rain = 0
KCO2 250033Z 16009KT 26/19 A2989 RMK A01 T02550194  RH  069%=      5-min Rain = 0
KCO2 250034Z 16010KT 25/19 A2989 RMK A01 T02540194  RH  069%=      5-min Rain = 0
KCO2 250035Z 17009KT 26/19 A2989 RMK A01 T02550194  RH  069%=      5-min Rain = 0
KCO2 250036Z 16010KT 25/19 A2989 RMK A01 T02540194  RH  069%=      5-min Rain = 0
KCO2 250037Z 17010KT 25/19 A2989 RMK A01 T02540194  RH  069%=      5-min Rain = 0
KCO2 250038Z 17010KT 25/20 A2989 RMK A01 T02540195  RH  070%=      5-min Rain = 0
KCO2 250039Z 17011KT 25/19 A2989 RMK A01 T02540194  RH  069%=      5-min Rain = 0
KCO2 250040Z 17010KT 25/19 A2989 RMK A01 T02540194  RH  069%=      5-min Rain = 0
KCO2 250041Z 17009KT 25/19 A2989 RMK A01 T02540194  RH  070%=      5-min Rain = 0
KCO2 250042Z 17010KT 25/20 A2989 RMK A01 T02540195  RH  070%=      5-min Rain = 0
KCO2 250043Z 17014G19KT 25/19 A2989 RMK A01 T02540193  RH  069%=      5-min Rain = 0
KCO2 250044Z 17013KT 26/19 A2989 RMK A01 T02550191  RH  068%=      5-min Rain = 0
KCO2 250045Z 16013KT 26/19 A2989 RMK A01 T02560192  RH  068%=      5-min Rain = 0
KCO2 250046Z 16012KT 26/19 A2989 RMK A01 T02560191  RH  067%=      5-min Rain = 0
KCO2 250047Z 16008KT 26/19 A2988 RMK A01 T02570192  RH  067%=      5-min Rain = 0
KCO2 250048Z 15011KT 26/19 A2988 RMK A01 T02570193  RH  068%=      5-min Rain = 0
KCO2 250049Z 16011KT 26/19 A2988 RMK A01 T02570192  RH  067%=      5-min Rain = 0
KCO2 250050Z 16012KT 26/19 A2988 RMK A01 T02570192  RH  067%=      5-min Rain = 0
KCO2 250051Z 16010KT 26/19 A2988 RMK A01 T02570192  RH  067%=      5-min Rain = 0
KCO2 250052Z 16010KT 26/19 A2988 RMK A01 T02570192  RH  068%=      5-min Rain = 0
KCO2 250053Z 17012KT 26/19 A2988 RMK A01 T02570192  RH  068%=      5-min Rain = 0
KCO2 250054Z 15009KT 26/19 A2987 RMK A01 T02560192  RH  068%=      5-min Rain = 0
KCO2 250055Z 14009KT 26/19 A2987 RMK A01 T02560193  RH  068%=      5-min Rain = 0
KCO2 250056Z 13007KT 26/19 A2987 RMK A01 T02560193  RH  068%=      5-min Rain = 0
KCO2 250057Z 14006KT 26/19 A2987 RMK A01 T02550193  RH  068%=      5-min Rain = 0
KCO2 250058Z 14008KT 26/19 A2987 RMK A01 T02550193  RH  068%=      5-min Rain = 0
KCO2 250059Z 15008G14KT 26/19 A2987 RMK A01 T02560193  RH  068%=      5-min Rain = 0
KCO2 250100Z 15011KT 26/19 A2987 RMK A01 T02560191  RH  067%=      5-min Rain = 0
KCO2 250101Z 15011KT 26/19 A2987 RMK A01 T02570191  RH  067%=      5-min Rain = 0
KCO2 250102Z 16008KT 26/19 A2987 RMK A01 T02590191  RH  066%=      5-min Rain = 0
KCO2 250103Z 16010KT 26/19 A2987 RMK A01 T02590191  RH  066%=      5-min Rain = 0
KCO2 250104Z 13006KT 26/19 A2986 RMK A01 T02600192  RH  066%=      5-min Rain = 0
KCO2 250105Z 13008KT 26/19 A2986 RMK A01 T02590192  RH  066%=      5-min Rain = 0
KCO2 250106Z 14006KT 26/19 A2986 RMK A01 T02590193  RH  067%=      5-min Rain = 0
KCO2 250107Z 15007KT 26/19 A2986 RMK A01 T02580194  RH  068%=      5-min Rain = 0
KCO2 250108Z 15006KT 26/20 A2986 RMK A01 T02580195  RH  068%=      5-min Rain = 0
KCO2 250109Z 15011KT 26/19 A2986 RMK A01 T02570194  RH  068%=      5-min Rain = 0
KCO2 250110Z 16010KT 26/19 A2986 RMK A01 T02570192  RH  067%=      5-min Rain = 0
KCO2 250111Z 16010KT 26/19 A2985 RMK A01 T02570192  RH  067%=      5-min Rain = 0
KCO2 250112Z 13010KT 26/19 A2985 RMK A01 T02570192  RH  067%=      5-min Rain = 0
KCO2 250113Z 14016G21KT 26/19 A2985 RMK A01 T02570189  RH  066%=      5-min Rain = 0
KCO2 250114Z 14012KT 26/19 A2985 RMK A01 T02590189  RH  065%=      5-min Rain = 0
KCO2 250115Z 14015KT 26/19 A2985 RMK A01 T02590189  RH  065%=      5-min Rain = 0
KCO2 250116Z 14011KT 26/19 A2985 RMK A01 T02590188  RH  065%=      5-min Rain = 0
KCO2 250117Z 14013KT 26/19 A2985 RMK A01 T02590188  RH  065%=      5-min Rain = 0
KCO2 250118Z 14012KT 26/19 A2985 RMK A01 T02590187  RH  064%=      5-min Rain = 0
KCO2 250119Z 13013KT 26/19 A2985 RMK A01 T02600189  RH  065%=      5-min Rain = 0
KCO2 250120Z 14011KT 26/19 A2985 RMK A01 T02590189  RH  065%=      5-min Rain = 0
KCO2 250121Z 13009KT 26/19 A2985 RMK A01 T02590190  RH  065%=      5-min Rain = 0
KCO2 250122Z 14010KT 26/19 A2985 RMK A01 T02590190  RH  066%=      5-min Rain = 0
KCO2 250123Z 14011KT 26/19 A2985 RMK A01 T02580190  RH  066%=      5-min Rain = 0
KCO2 250124Z 14010KT 26/19 A2985 RMK A01 T02570189  RH  066%=      5-min Rain = 0
KCO2 250125Z 14008KT 26/19 A2985 RMK A01 T02570190  RH  066%=      5-min Rain = 0
KCO2 250126Z 13008KT 26/19 A2985 RMK A01 T02570190  RH  067%=      5-min Rain = 0
KCO2 250127Z 13007KT 26/19 A2985 RMK A01 T02560190  RH  067%=      5-min Rain = 0
KCO2 250128Z 12008KT 26/19 A2985 RMK A01 T02560190  RH  067%=      5-min Rain = 0
KCO2 250129Z 13009G14KT 26/19 A2985 RMK A01 T02550189  RH  067%=      5-min Rain = 0
KCO2 250130Z 12008KT 26/19 A2985 RMK A01 T02550189  RH  067%=      5-min Rain = 0
KCO2 250131Z 11009KT 26/19 A2985 RMK A01 T02550188  RH  067%=      5-min Rain = 0
KCO2 250132Z 11008KT 26/19 A2985 RMK A01 T02550189  RH  067%=      5-min Rain = 0
KCO2 250133Z 12008KT 26/19 A2985 RMK A01 T02550190  RH  067%=      5-min Rain = 0
KCO2 250134Z 12009KT 26/19 A2985 RMK A01 T02550190  RH  067%=      5-min Rain = 0
KCO2 250135Z 12008KT 25/19 A2985 RMK A01 T02540190  RH  068%=      5-min Rain = 0
KCO2 250136Z 12007KT 25/19 A2985 RMK A01 T02540190  RH  068%=      5-min Rain = 0
KCO2 250137Z 12006KT 25/19 A2985 RMK A01 T02530191  RH  068%=      5-min Rain = 0
KCO2 250138Z 12007KT 25/19 A2985 RMK A01 T02520191  RH  069%=      5-min Rain = 0
KCO2 250139Z 12007KT 25/19 A2985 RMK A01 T02520191  RH  069%=      5-min Rain = 0
KCO2 250140Z 13007KT 25/19 A2985 RMK A01 T02510191  RH  069%=      5-min Rain = 0
KCO2 250141Z 13007KT 25/19 A2985 RMK A01 T02500190  RH  069%=      5-min Rain = 0
KCO2 250142Z 13008KT 25/19 A2985 RMK A01 T02510190  RH  069%=      5-min Rain = 0
KCO2 250143Z 14007KT 25/19 A2985 RMK A01 T02500190  RH  069%=      5-min Rain = 0
KCO2 250144Z 15006KT 25/19 A2985 RMK A01 T02510189  RH  069%=      5-min Rain = 0
KCO2 250145Z 15007KT 25/19 A2985 RMK A01 T02500188  RH  068%=      5-min Rain = 0
KCO2 250146Z 15006KT 25/19 A2985 RMK A01 T02500188  RH  068%=      5-min Rain = 0
KCO2 250147Z 14005KT 25/19 A2984 RMK A01 T02500187  RH  068%=      5-min Rain = 0
KCO2 250148Z 14004KT 25/19 A2984 RMK A01 T02500188  RH  068%=      5-min Rain = 0
KCO2 250149Z 14004KT 25/19 A2984 RMK A01 T02500189  RH  069%=      5-min Rain = 0
KCO2 250150Z 14003KT 25/19 A2984 RMK A01 T02490189  RH  069%=      5-min Rain = 0
KCO2 250151Z 15002KT 25/19 A2984 RMK A01 T02480189  RH  069%=      5-min Rain = 0
KCO2 250152Z 16002KT 25/19 A2984 RMK A01 T02480188  RH  069%=      5-min Rain = 0
KCO2 250153Z 15003KT 25/19 A2984 RMK A01 T02470188  RH  070%=      5-min Rain = 0
KCO2 250154Z 14004KT 25/19 A2984 RMK A01 T02470186  RH  069%=      5-min Rain = 0
KCO2 250155Z 13005KT 25/19 A2984 RMK A01 T02460185  RH  069%=      5-min Rain = 0
KCO2 250156Z 12005KT 25/19 A2984 RMK A01 T02450185  RH  069%=      5-min Rain = 0
KCO2 250157Z 12003KT 25/18 A2984 RMK A01 T02450183  RH  069%=      5-min Rain = 0
KCO2 250158Z 11003KT 25/18 A2984 RMK A01 T02450182  RH  068%=      5-min Rain = 0
KCO2 250159Z 11003KT 25/18 A2984 RMK A01 T02460182  RH  068%=      5-min Rain = 0
KCO2 250200Z 12003KT 25/18 A2984 RMK A01 T02460183  RH  068%=      5-min Rain = 0
KCO2 250201Z 13003KT 25/18 A2984 RMK A01 T02460183  RH  068%=      5-min Rain = 0
KCO2 250202Z 11003KT 25/18 A2984 RMK A01 T02460183  RH  068%=      5-min Rain = 0
KCO2 250203Z 10004KT 25/18 A2983 RMK A01 T02460183  RH  068%=      5-min Rain = 0
KCO2 250204Z 09004KT 25/18 A2983 RMK A01 T02450183  RH  068%=      5-min Rain = 0
KCO2 250205Z 09005KT 24/18 A2983 RMK A01 T02440183  RH  068%=      5-min Rain = 0
KCO2 250206Z 09006KT 24/18 A2983 RMK A01 T02430182  RH  069%=      5-min Rain = 0
KCO2 250207Z 09006KT 24/18 A2983 RMK A01 T02420181  RH  069%=      5-min Rain = 0
KCO2 250208Z 08006KT 24/18 A2984 RMK A01 T02420182  RH  069%=      5-min Rain = 0
KCO2 250209Z 08007KT 24/18 A2984 RMK A01 T02420182  RH  069%=      5-min Rain = 0
KCO2 250210Z 09008KT 24/18 A2984 RMK A01 T02420182  RH  070%=      5-min Rain = 0
KCO2 250211Z 09009KT 24/18 A2984 RMK A01 T02410183  RH  070%=      5-min Rain = 0
KCO2 250212Z 10009KT 24/18 A2985 RMK A01 T02400183  RH  070%=      5-min Rain = 0
KCO2 250213Z 10009KT 24/18 A2985 RMK A01 T02390183  RH  070%=      5-min Rain = 0
KCO2 250214Z 10009KT 24/18 A2985 RMK A01 T02390182  RH  071%=      5-min Rain = 0
KCO2 250215Z 11006KT 24/18 A2986 RMK A01 T02380182  RH  071%=      5-min Rain = 0
KCO2 250216Z 12006KT 24/18 A2986 RMK A01 T02380181  RH  071%=      5-min Rain = 0
KCO2 250217Z 12007KT 24/18 A2986 RMK A01 T02380181  RH  070%=      5-min Rain = 0
KCO2 250218Z 12009KT 24/18 A2986 RMK A01 T02370180  RH  070%=      5-min Rain = 0
KCO2 250219Z 12010KT 24/18 A2987 RMK A01 T02360179  RH  070%=      5-min Rain = 0
KCO2 250220Z 13011KT 24/18 A2987 RMK A01 T02360179  RH  070%=      5-min Rain = 0
KCO2 250221Z 14010KT 24/18 A2987 RMK A01 T02360178  RH  070%=      5-min Rain = 0
KCO2 250222Z 13009KT 24/18 A2987 RMK A01 T02370178  RH  069%=      5-min Rain = 0
KCO2 250223Z 13009KT 24/18 A2987 RMK A01 T02370178  RH  069%=      5-min Rain = 0
KCO2 250224Z 13008KT 24/18 A2987 RMK A01 T02370178  RH  070%=      5-min Rain = 0
KCO2 250225Z 13007KT 24/18 A2987 RMK A01 T02370178  RH  070%=      5-min Rain = 0
KCO2 250226Z 14006KT 24/18 A2987 RMK A01 T02360178  RH  070%=      5-min Rain = 0
KCO2 250227Z 14006KT 24/18 A2988 RMK A01 T02360178  RH  070%=      5-min Rain = 0
KCO2 250228Z 15004KT 24/18 A2988 RMK A01 T02360177  RH  069%=      5-min Rain = 0
KCO2 250229Z 16005KT 24/18 A2989 RMK A01 T02370178  RH  069%=      5-min Rain = 0
KCO2 250230Z 16006KT 24/18 A2989 RMK A01 T02370178  RH  069%=      5-min Rain = 0
KCO2 250231Z 17007KT 24/18 A2989 RMK A01 T02370178  RH  069%=      5-min Rain = 0
KCO2 250232Z 18009KT 24/18 A299 RMK A01 T02380179  RH  069%=      5-min Rain = 0
KCO2 250233Z 18007KT 24/18 A299 RMK A01 T02400180  RH  069%=      5-min Rain = 0
KCO2 250234Z 19006KT 24/18 A299 RMK A01 T02420180  RH  068%=      5-min Rain = 0
KCO2 250235Z 19006KT 24/18 A299 RMK A01 T02430180  RH  068%=      5-min Rain = 0
KCO2 250236Z 18006KT 24/18 A299 RMK A01 T02430180  RH  068%=      5-min Rain = 0
KCO2 250237Z 18008KT 24/18 A299 RMK A01 T02430180  RH  068%=      5-min Rain = 0
KCO2 250238Z 18007KT 24/18 A299 RMK A01 T02430181  RH  068%=      5-min Rain = 0
KCO2 250239Z 19006KT 24/18 A299 RMK A01 T02440181  RH  068%=      5-min Rain = 0
KCO2 250240Z 18007KT 24/18 A299 RMK A01 T02440181  RH  068%=      5-min Rain = 0
KCO2 250241Z 18007KT 25/18 A299 RMK A01 T02450181  RH  068%=      5-min Rain = 0
KCO2 250242Z 18007KT 25/18 A299 RMK A01 T02450182  RH  068%=      5-min Rain = 0
KCO2 250243Z 18008KT 25/18 A299 RMK A01 T02450182  RH  068%=      5-min Rain = 0
KCO2 250244Z 17006KT 25/18 A299 RMK A01 T02450182  RH  068%=      5-min Rain = 0
KCO2 250245Z 17007KT 25/18 A299 RMK A01 T02450183  RH  068%=      5-min Rain = 0
KCO2 250246Z 18007KT 24/18 A299 RMK A01 T02440183  RH  069%=      5-min Rain = 0
KCO2 250247Z 17006KT 24/18 A299 RMK A01 T02440183  RH  069%=      5-min Rain = 0
KCO2 250248Z 17007KT 24/18 A299 RMK A01 T02440183  RH  069%=      5-min Rain = 0
KCO2 250249Z 17007KT 24/18 A299 RMK A01 T02440183  RH  069%=      5-min Rain = 0
KCO2 250250Z 17006KT 24/18 A299 RMK A01 T02440184  RH  069%=      5-min Rain = 0
KCO2 250251Z 17007KT 24/18 A2989 RMK A01 T02440184  RH  069%=      5-min Rain = 0
KCO2 250252Z 17007KT 24/18 A2989 RMK A01 T02440184  RH  069%=      5-min Rain = 0
KCO2 250253Z 17007KT 24/19 A299 RMK A01 T02440185  RH  069%=      5-min Rain = 0
KCO2 250254Z 17007KT 24/19 A299 RMK A01 T02440185  RH  069%=      5-min Rain = 0
KCO2 250255Z 16005KT 24/19 A299 RMK A01 T02440185  RH  069%=      5-min Rain = 0
KCO2 250256Z 17005KT 24/19 A299 RMK A01 T02440186  RH  070%=      5-min Rain = 0
KCO2 250257Z 17005KT 24/19 A299 RMK A01 T02430186  RH  070%=      5-min Rain = 0
KCO2 250258Z 18005KT 24/19 A2991 RMK A01 T02420186  RH  071%=      5-min Rain = 0
KCO2 250259Z 18006KT 24/19 A2991 RMK A01 T02410186  RH  071%=      5-min Rain = 0
KCO2 250300Z 17006KT 24/19 A2991 RMK A01 T02400185  RH  071%=      5-min Rain = 0
KCO2 250301Z 17006KT 24/19 A2991 RMK A01 T02400186  RH  072%=      5-min Rain = 0
KCO2 250302Z 18006KT 24/19 A2991 RMK A01 T02400186  RH  072%=      5-min Rain = 0
KCO2 250303Z 18006KT 24/19 A2991 RMK A01 T02390186  RH  072%=      5-min Rain = 0
KCO2 250304Z 18006KT 24/19 A2991 RMK A01 T02390186  RH  072%=      5-min Rain = 0
KCO2 250305Z 18005KT 24/19 A2992 RMK A01 T02390186  RH  072%=      5-min Rain = 0
KCO2 250306Z 17005KT 24/19 A2992 RMK A01 T02380187  RH  073%=      5-min Rain = 0
KCO2 250307Z 17005KT 24/19 A2992 RMK A01 T02380187  RH  073%=      5-min Rain = 0
KCO2 250308Z 17005KT 24/19 A2992 RMK A01 T02370187  RH  073%=      5-min Rain = 0
KCO2 250309Z 16004KT 24/19 A2992 RMK A01 T02370187  RH  073%=      5-min Rain = 0
KCO2 250310Z 16004KT 24/19 A2991 RMK A01 T02360187  RH  074%=      5-min Rain = 0
KCO2 250311Z 14005KT 24/19 A2991 RMK A01 T02350187  RH  074%=      5-min Rain = 0
KCO2 250312Z 14004KT 23/19 A2991 RMK A01 T02340186  RH  075%=      5-min Rain = 0
KCO2 250313Z 14004KT 23/19 A2991 RMK A01 T02320186  RH  075%=      5-min Rain = 0
KCO2 250314Z 13006KT 23/19 A2991 RMK A01 T02320186  RH  075%=      5-min Rain = 0
KCO2 250315Z 13005KT 23/19 A2991 RMK A01 T02320186  RH  075%=      5-min Rain = 0
KCO2 250316Z 12006KT 23/19 A2991 RMK A01 T02330186  RH  075%=      5-min Rain = 0
KCO2 250317Z 13006KT 23/19 A2991 RMK A01 T02330186  RH  075%=      5-min Rain = 0
KCO2 250318Z 13006KT 23/19 A2991 RMK A01 T02330186  RH  075%=      5-min Rain = 0
KCO2 250319Z 13006KT 23/19 A2991 RMK A01 T02340186  RH  075%=      5-min Rain = 0
KCO2 250320Z 13006KT 24/19 A2991 RMK A01 T02350186  RH  074%=      5-min Rain = 0
KCO2 250321Z 11004KT 24/19 A2991 RMK A01 T02360187  RH  074%=      5-min Rain = 0
KCO2 250322Z 12006KT 24/19 A2991 RMK A01 T02360187  RH  074%=      5-min Rain = 0
KCO2 250323Z 12005KT 24/19 A2991 RMK A01 T02370187  RH  074%=      5-min Rain = 0
KCO2 250324Z 12006KT 24/19 A2991 RMK A01 T02380188  RH  074%=      5-min Rain = 0
KCO2 250325Z 13006KT 24/19 A2991 RMK A01 T02380188  RH  074%=      5-min Rain = 0
KCO2 250326Z 12005KT 24/19 A2991 RMK A01 T02380188  RH  074%=      5-min Rain = 0
KCO2 250327Z 12005KT 24/19 A2991 RMK A01 T02370188  RH  074%=      5-min Rain = 0
KCO2 250328Z 11005KT 24/19 A2991 RMK A01 T02370189  RH  074%=      5-min Rain = 0
KCO2 250329Z 11005KT 24/19 A2991 RMK A01 T02360188  RH  074%=      5-min Rain = 0
KCO2 250330Z 11004KT 24/19 A2991 RMK A01 T02360189  RH  075%=      5-min Rain = 0
KCO2 250331Z 11005KT 24/19 A2991 RMK A01 T02350189  RH  075%=      5-min Rain = 0
KCO2 250332Z 12005KT 23/19 A2991 RMK A01 T02340189  RH  076%=      5-min Rain = 0
KCO2 250333Z 12005KT 23/19 A2992 RMK A01 T02330188  RH  076%=      5-min Rain = 0
KCO2 250334Z 13005KT 23/19 A2992 RMK A01 T02320189  RH  076%=      5-min Rain = 0
KCO2 250335Z 13005KT 23/19 A2992 RMK A01 T02310188  RH  077%=      5-min Rain = 0
KCO2 250336Z 13006KT 23/19 A2992 RMK A01 T02310189  RH  077%=      5-min Rain = 0
KCO2 250337Z 13005KT 23/19 A2992 RMK A01 T02300189  RH  077%=      5-min Rain = 0
KCO2 250338Z 14006KT 23/19 A2993 RMK A01 T02290189  RH  078%=      5-min Rain = 0
KCO2 250339Z 14006KT 23/19 A2993 RMK A01 T02280189  RH  078%=      5-min Rain = 0
KCO2 250340Z 13006KT 23/19 A2992 RMK A01 T02270189  RH  079%=      5-min Rain = 0
KCO2 250341Z 13005KT 23/19 A2992 RMK A01 T02270189  RH  079%=      5-min Rain = 0
KCO2 250342Z 13006KT 23/19 A2992 RMK A01 T02260189  RH  079%=      5-min Rain = 0
KCO2 250343Z 13006KT 23/19 A2993 RMK A01 T02260188  RH  079%=      5-min Rain = 0
KCO2 250344Z 14005KT 23/19 A2993 RMK A01 T02260188  RH  079%=      5-min Rain = 0
KCO2 250345Z 13005KT 23/19 A2993 RMK A01 T02250189  RH  080%=      5-min Rain = 0
KCO2 250346Z 13005KT 23/19 A2992 RMK A01 T02250189  RH  080%=      5-min Rain = 0
KCO2 250347Z 13005KT 23/19 A2992 RMK A01 T02250188  RH  080%=      5-min Rain = 0
KCO2 250348Z 13004KT 23/19 A2993 RMK A01 T02250188  RH  080%=      5-min Rain = 0
KCO2 250349Z 14004KT 23/19 A2993 RMK A01 T02250188  RH  080%=      5-min Rain = 0
KCO2 250350Z 14004KT 23/19 A2993 RMK A01 T02250188  RH  080%=      5-min Rain = 0
KCO2 250351Z 15004KT 23/19 A2993 RMK A01 T02250188  RH  080%=      5-min Rain = 0
KCO2 250352Z 14004KT 23/19 A2993 RMK A01 T02250188  RH  080%=      5-min Rain = 0
KCO2 250353Z 14004KT 23/19 A2993 RMK A01 T02250188  RH  080%=      5-min Rain = 0
KCO2 250354Z 14004KT 23/19 A2993 RMK A01 T02250188  RH  080%=      5-min Rain = 0
KCO2 250355Z 13004KT 22/19 A2993 RMK A01 T02240188  RH  080%=      5-min Rain = 0
KCO2 250356Z 12003KT 22/19 A2993 RMK A01 T02240188  RH  080%=      5-min Rain = 0
KCO2 250357Z 13003KT 22/19 A2993 RMK A01 T02240188  RH  080%=      5-min Rain = 0
KCO2 250358Z 12003KT 22/19 A2993 RMK A01 T02240188  RH  080%=      5-min Rain = 0
KCO2 250359Z 12002KT 23/19 A2993 RMK A01 T02250188  RH  079%=      5-min Rain = 0
KCO2 250400Z 13003KT 23/19 A2993 RMK A01 T02260188  RH  079%=      5-min Rain = 0
KCO2 250401Z 12002KT 23/19 A2993 RMK A01 T02260188  RH  079%=      5-min Rain = 0
KCO2 250402Z 12002KT 23/19 A2993 RMK A01 T02250188  RH  079%=      5-min Rain = 0
KCO2 250403Z 14003KT 23/19 A2993 RMK A01 T02260187  RH  079%=      5-min Rain = 0
KCO2 250404Z 12003KT 23/19 A2993 RMK A01 T02260187  RH  078%=      5-min Rain = 0
KCO2 250405Z 12003KT 23/19 A2993 RMK A01 T02270187  RH  078%=      5-min Rain = 0
KCO2 250406Z 11003KT 23/19 A2992 RMK A01 T02280187  RH  078%=      5-min Rain = 0
KCO2 250407Z 13003KT 23/19 A2993 RMK A01 T02280188  RH  078%=      5-min Rain = 0
KCO2 250408Z 13003KT 23/19 A2993 RMK A01 T02280188  RH  078%=      5-min Rain = 0
KCO2 250409Z 13003KT 23/19 A2993 RMK A01 T02270187  RH  078%=      5-min Rain = 0
KCO2 250410Z 13003KT 23/19 A2993 RMK A01 T02270187  RH  078%=      5-min Rain = 0
KCO2 250411Z 13003KT 23/19 A2993 RMK A01 T02270188  RH  078%=      5-min Rain = 0
KCO2 250412Z 13003KT 23/19 A2993 RMK A01 T02260187  RH  078%=      5-min Rain = 0
KCO2 250413Z 12004KT 23/19 A2993 RMK A01 T02260187  RH  079%=      5-min Rain = 0
KCO2 250414Z 13003KT 23/19 A2993 RMK A01 T02250187  RH  079%=      5-min Rain = 0
KCO2 250415Z 13004KT 22/19 A2993 RMK A01 T02240187  RH  079%=      5-min Rain = 0
KCO2 250416Z 14004KT 22/19 A2993 RMK A01 T02240187  RH  079%=      5-min Rain = 0
KCO2 250417Z 15003KT 22/19 A2993 RMK A01 T02240187  RH  079%=      5-min Rain = 0
KCO2 250418Z 15002KT 22/19 A2993 RMK A01 T02240187  RH  079%=      5-min Rain = 0
KCO2 250419Z 15001KT 22/19 A2994 RMK A01 T02240186  RH  079%=      5-min Rain = 0
KCO2 250420Z 16002KT 22/19 A2994 RMK A01 T02230186  RH  080%=      5-min Rain = 0
KCO2 250421Z 16002KT 22/19 A2994 RMK A01 T02230187  RH  080%=      5-min Rain = 0
KCO2 250422Z 17003KT 22/19 A2994 RMK A01 T02230186  RH  080%=      5-min Rain = 0
KCO2 250423Z 16003KT 22/19 A2994 RMK A01 T02240186  RH  079%=      5-min Rain = 0
KCO2 250424Z 16003KT 22/19 A2994 RMK A01 T02240186  RH  079%=      5-min Rain = 0
KCO2 250425Z 18003KT 22/19 A2994 RMK A01 T02230185  RH  079%=      5-min Rain = 0
KCO2 250426Z 17003KT 22/19 A2994 RMK A01 T02220186  RH  080%=      5-min Rain = 0
KCO2 250427Z 18003KT 22/19 A2994 RMK A01 T02220186  RH  080%=      5-min Rain = 0
KCO2 250428Z 17003KT 22/19 A2994 RMK A01 T02220186  RH  080%=      5-min Rain = 0
KCO2 250429Z 17005KT 22/19 A2994 RMK A01 T02220186  RH  080%=      5-min Rain = 0
KCO2 250430Z 17004KT 22/19 A2994 RMK A01 T02230185  RH  079%=      5-min Rain = 0
KCO2 250431Z 17004KT 22/19 A2994 RMK A01 T02230186  RH  079%=      5-min Rain = 0
KCO2 250432Z 16004KT 22/19 A2994 RMK A01 T02230186  RH  080%=      5-min Rain = 0
KCO2 250433Z 16005KT 22/19 A2994 RMK A01 T02220186  RH  080%=      5-min Rain = 0
KCO2 250434Z 16005KT 22/19 A2994 RMK A01 T02220186  RH  080%=      5-min Rain = 0
KCO2 250435Z 15004KT 22/19 A2993 RMK A01 T02220186  RH  080%=      5-min Rain = 0
KCO2 250436Z 16005KT 22/19 A2993 RMK A01 T02210186  RH  080%=      5-min Rain = 0
KCO2 250437Z 16005KT 22/19 A2994 RMK A01 T02200186  RH  081%=      5-min Rain = 0
KCO2 250438Z 16005KT 22/19 A2994 RMK A01 T02200186  RH  081%=      5-min Rain = 0
KCO2 250439Z 16005KT 22/19 A2994 RMK A01 T02200186  RH  081%=      5-min Rain = 0
KCO2 250440Z 16004KT 22/19 A2994 RMK A01 T02200186  RH  081%=      5-min Rain = 0
KCO2 250441Z 16005KT 22/19 A2994 RMK A01 T02190186  RH  082%=      5-min Rain = 0
KCO2 250442Z 15006KT 22/19 A2994 RMK A01 T02190187  RH  082%=      5-min Rain = 0
KCO2 250443Z 15005KT 22/19 A2994 RMK A01 T02190186  RH  082%=      5-min Rain = 0
KCO2 250444Z 15005KT 22/19 A2994 RMK A01 T02190186  RH  082%=      5-min Rain = 0
KCO2 250445Z 15006KT 22/19 A2994 RMK A01 T02180186  RH  082%=      5-min Rain = 0
KCO2 250446Z 16006KT 22/19 A2994 RMK A01 T02170186  RH  083%=      5-min Rain = 0
KCO2 250447Z 16005KT 22/19 A2994 RMK A01 T02170187  RH  083%=      5-min Rain = 0
KCO2 250448Z 16005KT 22/19 A2995 RMK A01 T02170187  RH  083%=      5-min Rain = 0
KCO2 250449Z 16005KT 22/19 A2995 RMK A01 T02170187  RH  083%=      5-min Rain = 0
KCO2 250450Z 16005KT 22/19 A2994 RMK A01 T02170187  RH  083%=      5-min Rain = 0
KCO2 250451Z 15005KT 22/19 A2994 RMK A01 T02170187  RH  083%=      5-min Rain = 0
KCO2 250452Z 15005KT 22/19 A2995 RMK A01 T02170187  RH  083%=      5-min Rain = 0
KCO2 250453Z 15004KT 22/19 A2995 RMK A01 T02170187  RH  083%=      5-min Rain = 0
KCO2 250454Z 15005KT 22/19 A2995 RMK A01 T02170187  RH  083%=      5-min Rain = 0
KCO2 250455Z 15004KT 22/19 A2995 RMK A01 T02170187  RH  083%=      5-min Rain = 0
KCO2 250456Z 15004KT 22/19 A2995 RMK A01 T02170188  RH  083%=      5-min Rain = 0
KCO2 250457Z 14003KT 22/19 A2995 RMK A01 T02180187  RH  083%=      5-min Rain = 0
KCO2 250458Z 14003KT 22/19 A2995 RMK A01 T02180187  RH  083%=      5-min Rain = 0
KCO2 250459Z 15003KT 22/19 A2995 RMK A01 T02190187  RH  082%=      5-min Rain = 0

Page generated in 0.1339 seconds.